Home > Products > Valid Products > TAF

000
FTUS41 KOKX 061400 AAA
TAFGON
TAF AMD
KGON 061434Z 0615/0712 35010KT P6SM SKC
     FM061900 VRB04KT P6SM SKC=



000
FTUS41 KOKX 061400 AAA
TAFSWF
TAF AMD
KSWF 061434Z 0615/0718 33005KT P6SM SKC
     FM061600 VRB04KT P6SM SKC
      AMD NOT SKED=



000
FTUS41 KOKX 061400 AAA
TAFISP
TAF AMD
KISP 061434Z 0615/0712 35009KT P6SM SKC
     FM061900 VRB04KT P6SM SKC=



000
FTUS41 KOKX 061400 AAA
TAFBDR
TAF AMD
KBDR 061434Z 0615/0712 35006KT P6SM SKC
     FM061800 VRB04KT P6SM SKC=



000
FTUS41 KOKX 061400 AAA
TAFLGA
TAF AMD
KLGA 061434Z 0615/0712 35008KT P6SM SKC
     FM061800 VRB04KT P6SM SKC
     FM062200 26006KT P6SM FEW250=



000
FTUS41 KOKX 061400 AAA
TAFJFK
TAF AMD
KJFK 061434Z 0615/0718 35008KT P6SM SKC
     FM061800 VRB04KT P6SM SKC
     FM062200 24006KT P6SM FEW250
     FM070600 26010KT P6SM SCT150=



000
FTUS41 KOKX 061400 AAA
TAFEWR
TAF AMD
KEWR 061434Z 0615/0718 35008KT P6SM SKC
     FM061700 VRB04KT P6SM SKC
     FM062100 26005KT P6SM SCT150=



000
FTUS41 KOKX 061400 AAA
TAFTEB
TAF AMD
KTEB 061434Z 0615/0712 35007KT P6SM SKC
     FM061700 VRB04KT P6SM SKC
     FM062100 26004KT P6SM SCT150=



000
FTUS41 KOKX 061100
TAFJFK
TAF
KJFK 061132Z 0612/0718 35008KT P6SM SKC
     FM061800 VRB04KT P6SM SKC
     FM062200 24006KT P6SM FEW250
     FM070600 26010KT P6SM SCT150=



000
FTUS41 KOKX 061100
TAFISP
TAF
KISP 061132Z 0612/0712 35009KT P6SM SKC
     FM061900 VRB04KT P6SM SKC=



000
FTUS41 KOKX 061100
TAFGON
TAF
KGON 061132Z 0612/0712 35006KT P6SM SKC
     FM061900 VRB04KT P6SM SKC=



000
FTUS41 KOKX 061100
TAFBDR
TAF
KBDR 061132Z 0612/0712 35006KT P6SM SKC
     FM061800 VRB04KT P6SM SKC=



000
FTUS41 KOKX 061100
TAFJFK
TAF
KJFK 061132Z 0612/0718 35008KT P6SM SKC
     FM061800 VRB04KT P6SM SKC
     FM062200 24006KT P6SM FEW250
     FM070600 26010KT P6SM SCT150=



000
FTUS41 KOKX 061100
TAFTEB
TAF
KTEB 061132Z 0612/0712 35007KT P6SM SKC
     FM061700 VRB04KT P6SM SKC
     FM062100 26004KT P6SM SCT150=



000
FTUS41 KOKX 061100
TAFTEB
TAF
KTEB 061132Z 0612/0712 35007KT P6SM SKC
     FM061700 VRB04KT P6SM SKC
     FM062100 26004KT P6SM SCT150=



000
FTUS41 KOKX 061100
TAFLGA
TAF
KLGA 061132Z 0612/0712 35008KT P6SM SKC
     FM061800 VRB04KT P6SM SKC
     FM062200 26006KT P6SM FEW250=



000
FTUS41 KOKX 061100
TAFGON
TAF
KGON 061132Z 0612/0712 35006KT P6SM SKC
     FM061900 VRB04KT P6SM SKC=



000
FTUS41 KOKX 061100
TAFBDR
TAF
KBDR 061132Z 0612/0712 35006KT P6SM SKC
     FM061800 VRB04KT P6SM SKC=



000
FTUS41 KOKX 061100
TAFSWF
TAF
KSWF 061132Z 0612/0718 33005KT P6SM SKC
     FM061600 VRB04KT P6SM SKC
      AMD NOT SKED=



000
FTUS41 KOKX 061100
TAFISP
TAF
KISP 061132Z 0612/0712 35009KT P6SM SKC
     FM061900 VRB04KT P6SM SKC=



000
FTUS41 KOKX 061100
TAFEWR
TAF
KEWR 061132Z 0612/0718 35008KT P6SM SKC
     FM061700 VRB04KT P6SM SKC
     FM062100 26005KT P6SM SCT150=



000
FTUS41 KOKX 061100
TAFSWF
TAF
KSWF 061132Z 0612/0718 33005KT P6SM SKC
     FM061600 VRB04KT P6SM SKC
      AMD NOT SKED=



000
FTUS41 KOKX 061100
TAFLGA
TAF
KLGA 061132Z 0612/0712 35008KT P6SM SKC
     FM061800 VRB04KT P6SM SKC
     FM062200 26006KT P6SM FEW250=



000
FTUS41 KOKX 061100
TAFEWR
TAF
KEWR 061132Z 0612/0718 35008KT P6SM SKC
     FM061700 VRB04KT P6SM SKC
     FM062100 26005KT P6SM SCT150=



000
FTUS41 KOKX 060800 AAA
TAFISP
TAF AMD
KISP 060830Z 0609/0706 35011KT P6SM SKC
     FM061900 VRB04KT P6SM SKC=



000
FTUS41 KOKX 060800 AAA
TAFEWR
TAF AMD
KEWR 060830Z 0609/0712 35009KT P6SM SKC
     FM061700 VRB04KT P6SM SKC
     FM062100 26005KT P6SM SCT150=



000
FTUS41 KOKX 060800 AAA
TAFSWF
TAF AMD
KSWF 060830Z 0609/0712 33008KT P6SM SKC
     FM061600 VRB04KT P6SM SKC
      AMD NOT SKED=



000
FTUS41 KOKX 060800 AAA
TAFGON
TAF AMD
KGON 060830Z 0609/0706 35008KT P6SM SKC
     FM061900 VRB04KT P6SM SKC=



000
FTUS41 KOKX 060800 AAA
TAFBDR
TAF AMD
KBDR 060830Z 0609/0706 35010KT P6SM SKC
     FM061800 VRB04KT P6SM SKC=



000
FTUS41 KOKX 060800 AAA
TAFTEB
TAF AMD
KTEB 060830Z 0609/0706 35007KT P6SM SKC
     FM061700 VRB04KT P6SM SKC
     FM062100 26004KT P6SM SCT150=



000
FTUS41 KOKX 060800 AAA
TAFLGA
TAF AMD
KLGA 060830Z 0609/0706 35011KT P6SM SKC
     FM061800 VRB04KT P6SM SKC
     FM062200 26006KT P6SM FEW250=



000
FTUS41 KOKX 060800 AAA
TAFJFK
TAF AMD
KJFK 060830Z 0609/0712 34010KT P6SM SKC
     FM061800 VRB04KT P6SM SKC
     FM062200 24006KT P6SM FEW250
     FM070600 26010KT P6SM SCT150=



000
FTUS41 KOKX 060500
TAFSWF
TAF
KSWF 060535Z 0606/0712 32010KT P6SM SKC
     FM060800 VRB03KT P6SM SKC
     FM062000 VRB04KT P6SM SCT050
     FM070400 VRB03KT P6SM BKN150
      AMD NOT SKED=



000
FTUS41 KOKX 060500
TAFGON
TAF
KGON 060535Z 0606/0706 33012KT P6SM SCT120
     FM060900 36008KT P6SM SKC
     FM062000 25005KT P6SM FEW050=



000
FTUS41 KOKX 060500
TAFTEB
TAF
KTEB 060535Z 0606/0706 33012G18KT P6SM SKC
     FM060900 35005KT P6SM SKC
     FM062000 VRB04KT P6SM FEW050=



000
FTUS41 KOKX 060500
TAFLGA
TAF
KLGA 060535Z 0606/0706 35015G25KT P6SM SKC
     FM061000 35008KT P6SM SKC
     FM062000 VRB05KT P6SM FEW050=



000
FTUS41 KOKX 060500
TAFEWR
TAF
KEWR 060535Z 0606/0712 33015G23KT P6SM SKC
     FM060900 35008KT P6SM SKC
     FM062000 VRB05KT P6SM FEW050
     FM070600 25008KT P6SM BKN150=



000
FTUS41 KOKX 060500
TAFJFK
TAF
KJFK 060535Z 0606/0712 35015G25KT P6SM SKC
     FM061000 34008KT P6SM SKC
     FM062000 VRB04KT P6SM FEW050
     FM070600 26010KT P6SM BKN150=



000
FTUS41 KOKX 060500
TAFBDR
TAF
KBDR 060535Z 0606/0706 35013KT P6SM SKC
     FM061000 36006KT P6SM SKC
     FM062000 VRB03KT P6SM FEW050=



000
FTUS41 KOKX 060500
TAFISP
TAF
KISP 060535Z 0606/0706 35015KT P6SM SCT120
     FM060900 35008KT P6SM SKC
     FM061600 32007KT P6SM FEW050
     FM062000 VRB03KT P6SM FEW050=



000
FTUS41 KOKX 060500
TAFTEB
TAF
KTEB 060535Z 0606/0706 33012G18KT P6SM SKC
     FM060900 35005KT P6SM SKC
     FM062000 VRB04KT P6SM FEW050=



000
FTUS41 KOKX 060500
TAFSWF
TAF
KSWF 060535Z 0606/0712 32010KT P6SM SKC
     FM060800 VRB03KT P6SM SKC
     FM062000 VRB04KT P6SM SCT050
     FM070400 VRB03KT P6SM BKN150
      AMD NOT SKED=



000
FTUS41 KOKX 060500
TAFISP
TAF
KISP 060535Z 0606/0706 35015KT P6SM SCT120
     FM060900 35008KT P6SM SKC
     FM061600 32007KT P6SM FEW050
     FM062000 VRB03KT P6SM FEW050=



000
FTUS41 KOKX 060500
TAFJFK
TAF
KJFK 060535Z 0606/0712 35015G25KT P6SM SKC
     FM061000 34008KT P6SM SKC
     FM062000 VRB04KT P6SM FEW050
     FM070600 26010KT P6SM BKN150=



000
FTUS41 KOKX 060500
TAFGON
TAF
KGON 060535Z 0606/0706 33012KT P6SM SCT120
     FM060900 36008KT P6SM SKC
     FM062000 25005KT P6SM FEW050=



000
FTUS41 KOKX 060500
TAFLGA
TAF
KLGA 060535Z 0606/0706 35015G25KT P6SM SKC
     FM061000 35008KT P6SM SKC
     FM062000 VRB05KT P6SM FEW050=



000
FTUS41 KOKX 060500
TAFEWR
TAF
KEWR 060535Z 0606/0712 33015G23KT P6SM SKC
     FM060900 35008KT P6SM SKC
     FM062000 VRB05KT P6SM FEW050
     FM070600 25008KT P6SM BKN150=



000
FTUS41 KOKX 060500
TAFBDR
TAF
KBDR 060535Z 0606/0706 35013KT P6SM SKC
     FM061000 36006KT P6SM SKC
     FM062000 VRB03KT P6SM FEW050=



000
FTUS41 KOKX 060300 AAC
TAFJFK
TAF AMD
KJFK 060350Z 0604/0706 33015G25KT P6SM BKN100
     FM061100 36008KT P6SM FEW050
     FM062000 VRB05KT P6SM FEW050=



000
FTUS41 KOKX 060300 AAC
TAFLGA
TAF AMD
KLGA 060350Z 0604/0624 33015G25KT P6SM BKN120
     FM061100 36009KT P6SM FEW050
     FM062000 VRB05KT P6SM FEW050=



000
FTUS41 KOKX 060300 AAC
TAFJFK
TAF AMD
KJFK 060350Z 0604/0706 33015G25KT P6SM BKN100
     FM061100 36008KT P6SM FEW050
     FM062000 VRB05KT P6SM FEW050=



000
FTUS41 KOKX 060300 AAC
TAFLGA
TAF AMD
KLGA 060350Z 0604/0624 33015G25KT P6SM BKN120
     FM061100 36009KT P6SM FEW050
     FM062000 VRB05KT P6SM FEW050=



000
FTUS41 KOKX 060200 AAB
TAFISP
TAF AMD
KISP 060230Z 0603/0624 34012KT P6SM OVC080
     FM060600 35012KT P6SM SCT050
     FM061100 36008KT P6SM FEW050
     FM062000 VRB05KT P6SM FEW050=



000
FTUS41 KOKX 060200 AAB
TAFEWR
TAF AMD
KEWR 060230Z 0603/0706 32012G18KT P6SM BKN070
     FM060600 35012KT P6SM SCT050
     FM061100 35008KT P6SM FEW050
     FM062000 VRB05KT P6SM FEW050=



000
FTUS41 KOKX 060200 AAB
TAFISP
TAF AMD
KISP 060230Z 0603/0624 34012KT P6SM OVC080
     FM060600 35012KT P6SM SCT050
     FM061100 36008KT P6SM FEW050
     FM062000 VRB05KT P6SM FEW050=



000
FTUS41 KOKX 060200 AAB
TAFLGA
TAF AMD
KLGA 060230Z 0603/0624 33015KT P6SM OVC100
     FM060600 36015KT P6SM SCT050
     FM061100 36009KT P6SM FEW050
     FM062000 VRB05KT P6SM FEW050=



000
FTUS41 KOKX 060200 AAB
TAFEWR
TAF AMD
KEWR 060230Z 0603/0706 32012G18KT P6SM BKN070
     FM060600 35012KT P6SM SCT050
     FM061100 35008KT P6SM FEW050
     FM062000 VRB05KT P6SM FEW050=



000
FTUS41 KOKX 060200 AAB
TAFGON
TAF AMD
KGON 060230Z 0603/0624 34008KT P6SM OVC080
     FM060700 36010KT P6SM SCT050
     FM061100 36008KT P6SM SKC
     FM062000 VRB03KT P6SM FEW050=



000
FTUS41 KOKX 060200 AAB
TAFLGA
TAF AMD
KLGA 060230Z 0603/0624 33015KT P6SM OVC100
     FM060600 36015KT P6SM SCT050
     FM061100 36009KT P6SM FEW050
     FM062000 VRB05KT P6SM FEW050=



000
FTUS41 KOKX 060200 AAB
TAFJFK
TAF AMD
KJFK 060230Z 0603/0706 33015KT P6SM SCT050 BKN100
     FM060600 35015KT P6SM SCT050
     FM061100 36008KT P6SM FEW050
     FM062000 VRB05KT P6SM FEW050=



000
FTUS41 KOKX 060200 AAA
TAFBDR
TAF AMD
KBDR 060230Z 0603/0624 32012G18KT P6SM OVC100
     FM060600 36010KT P6SM SCT050
     FM061000 36006KT P6SM FEW050
     FM062000 VRB03KT P6SM FEW050=



000
FTUS41 KOKX 060200 AAB
TAFTEB
TAF AMD
KTEB 060230Z 0603/0624 33008KT P6SM OVC100
     FM060600 35010KT P6SM SCT050
     FM061100 35006KT P6SM FEW050
     FM062000 VRB03KT P6SM FEW050=



000
FTUS41 KOKX 060200 AAB
TAFSWF
TAF AMD
KSWF 060230Z 0603/0706 33012G20KT P6SM OVC100
     FM060600 35008KT P6SM SCT050
     FM061000 VRB03KT P6SM SKC
     FM062000 VRB03KT P6SM SCT050
      AMD NOT SKED=



000
FTUS41 KOKX 060200 AAB
TAFGON
TAF AMD
KGON 060230Z 0603/0624 34008KT P6SM OVC080
     FM060700 36010KT P6SM SCT050
     FM061100 36008KT P6SM SKC
     FM062000 VRB03KT P6SM FEW050=



000
FTUS41 KOKX 060200 AAB
TAFTEB
TAF AMD
KTEB 060230Z 0603/0624 33008KT P6SM OVC100
     FM060600 35010KT P6SM SCT050
     FM061100 35006KT P6SM FEW050
     FM062000 VRB03KT P6SM FEW050=



000
FTUS41 KOKX 060200 AAA
TAFBDR
TAF AMD
KBDR 060230Z 0603/0624 32012G18KT P6SM OVC100
     FM060600 36010KT P6SM SCT050
     FM061000 36006KT P6SM FEW050
     FM062000 VRB03KT P6SM FEW050=



000
FTUS41 KOKX 060200 AAB
TAFJFK
TAF AMD
KJFK 060230Z 0603/0706 33015KT P6SM SCT050 BKN100
     FM060600 35015KT P6SM SCT050
     FM061100 36008KT P6SM FEW050
     FM062000 VRB05KT P6SM FEW050=



000
FTUS41 KOKX 060200 AAB
TAFSWF
TAF AMD
KSWF 060230Z 0603/0706 33012G20KT P6SM OVC100
     FM060600 35008KT P6SM SCT050
     FM061000 VRB03KT P6SM SKC
     FM062000 VRB03KT P6SM SCT050
      AMD NOT SKED=



000
FTUS41 KOKX 060100 AAA
TAFJFK
TAF AMD
KJFK 060104Z 0601/0706 32012KT P6SM SCT020 BKN080
      TEMPO 0601/0602 6SM -SN
     FM060600 35015KT P6SM SCT050
     FM061100 36008KT P6SM FEW050
     FM062000 VRB05KT P6SM FEW050=



000
FTUS41 KOKX 060100 AAA
TAFSWF
TAF AMD
KSWF 060104Z 0601/0706 30008KT P6SM OVC100
     FM060600 35008KT P6SM SCT050
     FM061000 VRB03KT P6SM SKC
     FM062000 VRB03KT P6SM SCT050
      AMD NOT SKED=



000
FTUS41 KOKX 060100 AAA
TAFGON
TAF AMD
KGON 060104Z 0601/0624 33008KT P6SM -SN OVC100
     FM060200 35008KT P6SM OVC080
     FM060700 36010KT P6SM SCT050
     FM061100 36008KT P6SM SKC
     FM062000 VRB03KT P6SM FEW050=



000
FTUS41 KOKX 060100 AAA
TAFISP
TAF AMD
KISP 060104Z 0601/0624 33012KT P6SM -SN OVC100
     FM060200 34010KT P6SM OVC080
     FM060600 35012KT P6SM SCT050
     FM061100 36008KT P6SM FEW050
     FM062000 VRB05KT P6SM FEW050=



000
FTUS41 KOKX 060100 AAA
TAFTEB
TAF AMD
KTEB 060104Z 0601/0624 33008KT P6SM BKN080
     FM060600 35010KT P6SM SCT050
     FM061100 35006KT P6SM FEW050
     FM062000 VRB03KT P6SM FEW050=



000
FTUS41 KOKX 060100 AAA
TAFEWR
TAF AMD
KEWR 060104Z 0601/0706 32012KT P6SM FEW009 BKN060 BKN100
      TEMPO 0601/0602 6SM -SN
     FM060200 33010KT P6SM BKN070
     FM060600 35012KT P6SM SCT050
     FM061100 35008KT P6SM FEW050
     FM062000 VRB05KT P6SM FEW050=



000
FTUS41 KOKX 060100 AAA
TAFLGA
TAF AMD
KLGA 060104Z 0601/0624 33012KT P6SM OVC050
      TEMPO 0601/0602 6SM -SN
     FM060600 36015KT P6SM SCT050
     FM061100 36009KT P6SM FEW050
     FM062000 VRB05KT P6SM FEW050=



000
FTUS41 KOKX 060100 AAA
TAFLGA
TAF AMD
KLGA 060104Z 0601/0624 33012KT P6SM OVC050
      TEMPO 0601/0602 6SM -SN
     FM060600 36015KT P6SM SCT050
     FM061100 36009KT P6SM FEW050
     FM062000 VRB05KT P6SM FEW050=



000
FTUS41 KOKX 060100 AAA
TAFGON
TAF AMD
KGON 060104Z 0601/0624 33008KT P6SM -SN OVC100
     FM060200 35008KT P6SM OVC080
     FM060700 36010KT P6SM SCT050
     FM061100 36008KT P6SM SKC
     FM062000 VRB03KT P6SM FEW050=



000
FTUS41 KOKX 060100 AAA
TAFEWR
TAF AMD
KEWR 060104Z 0601/0706 32012KT P6SM FEW009 BKN060 BKN100
      TEMPO 0601/0602 6SM -SN
     FM060200 33010KT P6SM BKN070
     FM060600 35012KT P6SM SCT050
     FM061100 35008KT P6SM FEW050
     FM062000 VRB05KT P6SM FEW050=



000
FTUS41 KOKX 060100 AAA
TAFISP
TAF AMD
KISP 060104Z 0601/0624 33012KT P6SM -SN OVC100
     FM060200 34010KT P6SM OVC080
     FM060600 35012KT P6SM SCT050
     FM061100 36008KT P6SM FEW050
     FM062000 VRB05KT P6SM FEW050=



000
FTUS41 KOKX 060100 AAA
TAFSWF
TAF AMD
KSWF 060104Z 0601/0706 30008KT P6SM OVC100
     FM060600 35008KT P6SM SCT050
     FM061000 VRB03KT P6SM SKC
     FM062000 VRB03KT P6SM SCT050
      AMD NOT SKED=



000
FTUS41 KOKX 060100 AAA
TAFJFK
TAF AMD
KJFK 060104Z 0601/0706 32012KT P6SM SCT020 BKN080
      TEMPO 0601/0602 6SM -SN
     FM060600 35015KT P6SM SCT050
     FM061100 36008KT P6SM FEW050
     FM062000 VRB05KT P6SM FEW050=



000
FTUS41 KOKX 060100 AAA
TAFTEB
TAF AMD
KTEB 060104Z 0601/0624 33008KT P6SM BKN080
     FM060600 35010KT P6SM SCT050
     FM061100 35006KT P6SM FEW050
     FM062000 VRB03KT P6SM FEW050=



000
FTUS41 KOKX 052300
TAFJFK
TAF
KJFK 052332Z 0600/0706 34010KT 5SM -SN BR SCT007 OVC020
     FM060030 32012KT P6SM BKN020 OVC050
     FM060600 35015KT P6SM SCT050
     FM061100 36008KT P6SM FEW050
     FM062000 VRB05KT P6SM FEW050=



000
FTUS41 KOKX 052300
TAFISP
TAF
KISP 052332Z 0600/0624 33012KT 2SM -SN BR OVC025
     FM060200 34010KT P6SM OVC030
     FM060600 35012KT P6SM SCT050
     FM061100 36008KT P6SM FEW050
     FM062000 VRB05KT P6SM FEW050=



000
FTUS41 KOKX 052300
TAFBDR
TAF
KBDR 052332Z 0600/0624 32008KT P6SM OVC050
     FM060600 36010KT P6SM SCT050
     FM061000 36006KT P6SM FEW050
     FM062000 VRB03KT P6SM FEW050=



000
FTUS41 KOKX 052300
TAFEWR
TAF
KEWR 052332Z 0600/0706 32012KT 6SM -SN SCT025 OVC090
     FM060100 33012KT P6SM BKN100
     FM060600 35012KT P6SM SCT050
     FM061100 35008KT P6SM FEW050
     FM062000 VRB05KT P6SM FEW050=



000
FTUS41 KOKX 052300
TAFSWF
TAF
KSWF 052332Z 0600/0706 VRB05KT P6SM OVC100
     FM060600 35008KT P6SM SCT050
     FM061000 VRB03KT P6SM SKC
     FM062000 VRB03KT P6SM SCT050
      AMD NOT SKED=



000
FTUS41 KOKX 052300
TAFSWF
TAF
KSWF 052332Z 0600/0706 VRB05KT P6SM OVC100
     FM060600 35008KT P6SM SCT050
     FM061000 VRB03KT P6SM SKC
     FM062000 VRB03KT P6SM SCT050
      AMD NOT SKED=



000
FTUS41 KOKX 052300
TAFEWR
TAF
KEWR 052332Z 0600/0706 32012KT 6SM -SN SCT025 OVC090
     FM060100 33012KT P6SM BKN100
     FM060600 35012KT P6SM SCT050
     FM061100 35008KT P6SM FEW050
     FM062000 VRB05KT P6SM FEW050=



000
FTUS41 KOKX 052300
TAFTEB
TAF
KTEB 052332Z 0600/0624 34008KT 3SM -SN OVC035
     FM060100 34008KT P6SM BKN020 OVC050
     FM060600 35010KT P6SM SCT050
     FM061100 35006KT P6SM FEW050
     FM062000 VRB03KT P6SM FEW050=



000
FTUS41 KOKX 052300
TAFLGA
TAF
KLGA 052332Z 0600/0624 32012KT 4SM BR SCT015 OVC035
     FM060100 33012KT P6SM OVC050
     FM060600 36015KT P6SM SCT050
     FM061100 36009KT P6SM FEW050
     FM062000 VRB05KT P6SM FEW050=



000
FTUS41 KOKX 052300
TAFLGA
TAF
KLGA 052332Z 0600/0624 32012KT 4SM BR SCT015 OVC035
     FM060100 33012KT P6SM OVC050
     FM060600 36015KT P6SM SCT050
     FM061100 36009KT P6SM FEW050
     FM062000 VRB05KT P6SM FEW050=



000
FTUS41 KOKX 052300
TAFGON
TAF
KGON 052332Z 0600/0624 33008KT 3SM -SN BR OVC035
     FM060300 35008KT P6SM OVC030
     FM060700 36010KT P6SM SCT050
     FM061100 36008KT P6SM SKC
     FM062000 VRB03KT P6SM FEW050=



000
FTUS41 KOKX 052300
TAFBDR
TAF
KBDR 052332Z 0600/0624 32008KT P6SM OVC050
     FM060600 36010KT P6SM SCT050
     FM061000 36006KT P6SM FEW050
     FM062000 VRB03KT P6SM FEW050=



000
FTUS41 KOKX 052300
TAFJFK
TAF
KJFK 052332Z 0600/0706 34010KT 5SM -SN BR SCT007 OVC020
     FM060030 32012KT P6SM BKN020 OVC050
     FM060600 35015KT P6SM SCT050
     FM061100 36008KT P6SM FEW050
     FM062000 VRB05KT P6SM FEW050=



000
FTUS41 KOKX 052300
TAFISP
TAF
KISP 052332Z 0600/0624 33012KT 2SM -SN BR OVC025
     FM060200 34010KT P6SM OVC030
     FM060600 35012KT P6SM SCT050
     FM061100 36008KT P6SM FEW050
     FM062000 VRB05KT P6SM FEW050=



000
FTUS41 KOKX 052300
TAFTEB
TAF
KTEB 052332Z 0600/0624 34008KT 3SM -SN OVC035
     FM060100 34008KT P6SM BKN020 OVC050
     FM060600 35010KT P6SM SCT050
     FM061100 35006KT P6SM FEW050
     FM062000 VRB03KT P6SM FEW050=



000
FTUS41 KOKX 052300
TAFGON
TAF
KGON 052332Z 0600/0624 33008KT 3SM -SN BR OVC035
     FM060300 35008KT P6SM OVC030
     FM060700 36010KT P6SM SCT050
     FM061100 36008KT P6SM SKC
     FM062000 VRB03KT P6SM FEW050=



000
FTUS41 KOKX 052200 AAC
TAFISP
TAF AMD
KISP 052201Z 0522/0618 31008KT 4SM -SN FEW012 BKN022 OVC035
      TEMPO 0522/0523 1/2SM SN OVC015
     FM052300 35012G18KT P6SM BKN025 OVC040
     FM060100 33012KT P6SM BKN020 OVC050
     FM060300 33010KT P6SM SCT020 BKN050
     FM060900 36009KT P6SM FEW050=



000
FTUS41 KOKX 052200 AAC
TAFISP
TAF AMD
KISP 052201Z 0522/0618 31008KT 4SM -SN FEW012 BKN022 OVC035
      TEMPO 0522/0523 1/2SM SN OVC015
     FM052300 35012G18KT P6SM BKN025 OVC040
     FM060100 33012KT P6SM BKN020 OVC050
     FM060300 33010KT P6SM SCT020 BKN050
     FM060900 36009KT P6SM FEW050=



000
FTUS41 KOKX 052100 AAD
TAFTEB
TAF AMD
KTEB 052148Z 0522/0618 30012G16KT 5SM -SN BKN025 OVC060
      TEMPO 0522/0523 1/2SM SN BKN015
     FM052300 33012KT P6SM BKN020 OVC050
     FM060200 32010KT P6SM SCT020 BKN050
     FM060700 35009KT P6SM FEW050=



000
FTUS41 KOKX 052000 AAB
TAFBDR
TAF AMD
KBDR 052035Z 0521/0618 33007KT 5SM -SN SCT040 OVC060
      TEMPO 0521/0523 2SM -SN BKN030
     FM060100 32008KT P6SM BKN020 OVC050
     FM060300 33009KT P6SM SCT020 BKN050
     FM060900 36009KT P6SM FEW050=



000
FTUS41 KOKX 052000 AAA
TAFJFK
TAF AMD
KJFK 052035Z 0521/0624 33007G15KT 2SM -SN BKN008 OVC015
      TEMPO 0521/0523 3/4SM -SN BKN008 OVC015
     FM052300 33012KT 5SM -SN BR BKN020 OVC050
     FM060000 33012KT P6SM SCT020 BKN050
     FM060800 36009KT P6SM FEW050
     FM061700 35005KT P6SM FEW050=



000
FTUS41 KOKX 052000 AAD
TAFEWR
TAF AMD
KEWR 052035Z 0521/0624 29007KT P6SM SCT025 BKN035 OVC050
      TEMPO 0521/0523 1SM -SN BKN010 BKN025
     FM052300 33012KT P6SM BKN035 OVC050
     FM060200 33012KT P6SM SCT020 BKN050
     FM060700 36009KT P6SM FEW050
     FM061700 33005KT P6SM FEW050=



000
FTUS41 KOKX 052000 AAC
TAFLGA
TAF AMD
KLGA 052035Z 0521/0618 30007KT 2SM -SN BR BKN035 OVC045
      TEMPO 0521/0523 3/4SM -SN BKN020
     FM052300 34012KT P6SM BKN040 OVC070
     FM060000 33011KT P6SM SCT040 BKN070
     FM060800 36009KT P6SM FEW050=



000
FTUS41 KOKX 052000 AAC
TAFTEB
TAF AMD
KTEB 052035Z 0521/0618 30012G16KT 5SM -SN BKN025 OVC060
      TEMPO 0521/0523 2SM -SN BKN015
     FM052300 33012KT P6SM BKN020 OVC050
     FM060200 32010KT P6SM SCT020 BKN050
     FM060700 35009KT P6SM FEW050=



000
FTUS41 KOKX 052000 AAB
TAFISP
TAF AMD
KISP 052035Z 0521/0618 31008KT 4SM -SN FEW012 BKN022 OVC035
      TEMPO 0521/0523 3SM -SN BKN025 OVC040
     FM052300 35012G18KT P6SM BKN025 OVC040
     FM060100 33012KT P6SM BKN020 OVC050
     FM060300 33010KT P6SM SCT020 BKN050
     FM060900 36009KT P6SM FEW050=



000
FTUS41 KOKX 052000 AAA
TAFGON
TAF AMD
KGON 052035Z 0521/0618 32012G18KT 2SM -SN BR SCT008 OVC017
      TEMPO 0521/0523 3/4SM -SN OVC008
     FM052300 33012KT 4SM -SN BR BKN020 OVC050
     FM060200 35010KT P6SM SCT020 BKN050
     FM061000 36006KT P6SM FEW050=



000
FTUS41 KOKX 052000 AAB
TAFSWF
TAF AMD
KSWF 052035Z 0521/0624 VRB05KT P6SM BKN040
     FM060200 31007KT P6SM BKN080
     FM061000 VRB05KT P6SM FEW050
      AMD NOT SKED=



000
FTUS41 KOKX 052000 AAD
TAFEWR
TAF AMD
KEWR 052035Z 0521/0624 29007KT P6SM SCT025 BKN035 OVC050
      TEMPO 0521/0523 1SM -SN BKN010 BKN025
     FM052300 33012KT P6SM BKN035 OVC050
     FM060200 33012KT P6SM SCT020 BKN050
     FM060700 36009KT P6SM FEW050
     FM061700 33005KT P6SM FEW050=



000
FTUS41 KOKX 052000 AAB
TAFBDR
TAF AMD
KBDR 052035Z 0521/0618 33007KT 5SM -SN SCT040 OVC060
      TEMPO 0521/0523 2SM -SN BKN030
     FM060100 32008KT P6SM BKN020 OVC050
     FM060300 33009KT P6SM SCT020 BKN050
     FM060900 36009KT P6SM FEW050=



000
FTUS41 KOKX 052000 AAA
TAFGON
TAF AMD
KGON 052035Z 0521/0618 32012G18KT 2SM -SN BR SCT008 OVC017
      TEMPO 0521/0523 3/4SM -SN OVC008
     FM052300 33012KT 4SM -SN BR BKN020 OVC050
     FM060200 35010KT P6SM SCT020 BKN050
     FM061000 36006KT P6SM FEW050=



000
FTUS41 KOKX 052000 AAC
TAFLGA
TAF AMD
KLGA 052035Z 0521/0618 30007KT 2SM -SN BR BKN035 OVC045
      TEMPO 0521/0523 3/4SM -SN BKN020
     FM052300 34012KT P6SM BKN040 OVC070
     FM060000 33011KT P6SM SCT040 BKN070
     FM060800 36009KT P6SM FEW050=



000
FTUS41 KOKX 052000 AAA
TAFJFK
TAF AMD
KJFK 052035Z 0521/0624 33007G15KT 2SM -SN BKN008 OVC015
      TEMPO 0521/0523 3/4SM -SN BKN008 OVC015
     FM052300 33012KT 5SM -SN BR BKN020 OVC050
     FM060000 33012KT P6SM SCT020 BKN050
     FM060800 36009KT P6SM FEW050
     FM061700 35005KT P6SM FEW050=



000
FTUS41 KOKX 052000 AAB
TAFISP
TAF AMD
KISP 052035Z 0521/0618 31008KT 4SM -SN FEW012 BKN022 OVC035
      TEMPO 0521/0523 3SM -SN BKN025 OVC040
     FM052300 35012G18KT P6SM BKN025 OVC040
     FM060100 33012KT P6SM BKN020 OVC050
     FM060300 33010KT P6SM SCT020 BKN050
     FM060900 36009KT P6SM FEW050=



000
FTUS41 KOKX 052000 AAC
TAFTEB
TAF AMD
KTEB 052035Z 0521/0618 30012G16KT 5SM -SN BKN025 OVC060
      TEMPO 0521/0523 2SM -SN BKN015
     FM052300 33012KT P6SM BKN020 OVC050
     FM060200 32010KT P6SM SCT020 BKN050
     FM060700 35009KT P6SM FEW050=



000
FTUS41 KOKX 052000 AAB
TAFSWF
TAF AMD
KSWF 052035Z 0521/0624 VRB05KT P6SM BKN040
     FM060200 31007KT P6SM BKN080
     FM061000 VRB05KT P6SM FEW050
      AMD NOT SKED=



000
FTUS41 KOKX 052000 AAB
TAFLGA
TAF AMD
KLGA 052005Z 0520/0618 30007KT 5SM BR BKN035 OVC045
      TEMPO 0520/0521 1SM -SN BKN020
     FM052300 34012KT P6SM BKN040 OVC070
     FM060000 33011KT P6SM SCT040 BKN070
     FM060800 36009KT P6SM FEW050=



000
FTUS41 KOKX 051900 AAC
TAFEWR
TAF AMD
KEWR 051957Z 0520/0624 27007KT P6SM SCT025 BKN035 OVC050
      TEMPO 0520/0521 1SM -SN BKN010 BKN025
     FM052200 33012KT P6SM BKN035 OVC050
     FM060200 33012KT P6SM SCT020 BKN050
     FM060700 36009KT P6SM FEW050
     FM061700 33005KT P6SM FEW050=



000
FTUS41 KOKX 051900 AAC
TAFEWR
TAF AMD
KEWR 051957Z 0520/0624 27007KT P6SM SCT025 BKN035 OVC050
      TEMPO 0520/0521 1SM -SN BKN010 BKN025
     FM052200 33012KT P6SM BKN035 OVC050
     FM060200 33012KT P6SM SCT020 BKN050
     FM060700 36009KT P6SM FEW050
     FM061700 33005KT P6SM FEW050=



000
FTUS41 KOKX 051900 AAA
TAFISP
TAF AMD
KISP 051948Z 0520/0618 33007KT P6SM FEW012 BKN022 OVC035
      TEMPO 0520/0522 5SM -SN BKN025 OVC040
     FM052200 35012G18KT P6SM BKN025 OVC040
     FM060100 33012KT P6SM BKN020 OVC050
     FM060300 33010KT P6SM SCT020 BKN050
     FM060900 36009KT P6SM FEW050=



000
FTUS41 KOKX 051900 AAA
TAFISP
TAF AMD
KISP 051948Z 0520/0618 33007KT P6SM FEW012 BKN022 OVC035
      TEMPO 0520/0522 5SM -SN BKN025 OVC040
     FM052200 35012G18KT P6SM BKN025 OVC040
     FM060100 33012KT P6SM BKN020 OVC050
     FM060300 33010KT P6SM SCT020 BKN050
     FM060900 36009KT P6SM FEW050=



000
FTUS41 KOKX 051900 AAB
TAFEWR
TAF AMD
KEWR 051946Z 0520/0624 27007KT P6SM SCT025 BKN035 OVC050
      TEMPO 0520/0521 5SM -SN BKN025
     FM052200 33012KT P6SM BKN035 OVC050
     FM060200 33012KT P6SM SCT020 BKN050
     FM060700 36009KT P6SM FEW050
     FM061700 33005KT P6SM FEW050=



000
FTUS41 KOKX 051900 AAB
TAFEWR
TAF AMD
KEWR 051946Z 0520/0624 27007KT P6SM SCT025 BKN035 OVC050
      TEMPO 0520/0521 5SM -SN BKN025
     FM052200 33012KT P6SM BKN035 OVC050
     FM060200 33012KT P6SM SCT020 BKN050
     FM060700 36009KT P6SM FEW050
     FM061700 33005KT P6SM FEW050=



000
FTUS41 KOKX 051900 AAA
TAFLGA
TAF AMD
KLGA 051945Z 0520/0618 30007KT 5SM BR BKN035 OVC045
      TEMPO 0520/0521 3SM -SN BKN020
     FM052300 34012KT P6SM BKN040 OVC070
     FM060000 33011KT P6SM SCT040 BKN070
     FM060800 36009KT P6SM FEW050=



000
FTUS41 KOKX 051900 AAA
TAFEWR
TAF AMD
KEWR 051934Z 0520/0624 32009KT 3SM -SN BKN015 OVC050
      TEMPO 0520/0521 1SM -SN BKN007
     FM052200 33012KT P6SM BKN035 OVC050
     FM060200 33012KT P6SM SCT020 BKN050
     FM060700 36009KT P6SM FEW050
     FM061700 33005KT P6SM FEW050=



000
FTUS41 KOKX 051900 AAB
TAFTEB
TAF AMD
KTEB 051932Z 0520/0618 VRB05KT P6SM BKN035 OVC060
      TEMPO 0520/0521 3SM -SN BKN015
     FM052200 33012KT P6SM BKN020 OVC050
     FM060200 32010KT P6SM SCT020 BKN050
     FM060700 35009KT P6SM FEW050=



000
FTUS41 KOKX 051800 AAA
TAFBDR
TAF AMD
KBDR 051858Z 0519/0618 VRB05KT P6SM SCT040 OVC060
      TEMPO 0519/0521 5SM -SN BKN030
     FM060100 32008KT P6SM BKN020 OVC050
     FM060300 33009KT P6SM SCT020 BKN050
     FM060900 36009KT P6SM FEW050=



000
FTUS41 KOKX 051800 AAA
TAFBDR
TAF AMD
KBDR 051858Z 0519/0618 VRB05KT P6SM SCT040 OVC060
      TEMPO 0519/0521 5SM -SN BKN030
     FM060100 32008KT P6SM BKN020 OVC050
     FM060300 33009KT P6SM SCT020 BKN050
     FM060900 36009KT P6SM FEW050=



000
FTUS41 KOKX 051800 AAA
TAFSWF
TAF AMD
KSWF 051856Z 0519/0624 33010KT P6SM BKN040
     FM060200 31007KT P6SM BKN080
     FM061000 VRB05KT P6SM FEW050
      AMD NOT SKED=



000
FTUS41 KOKX 051800 AAA
TAFTEB
TAF AMD
KTEB 051855Z 0519/0618 31005KT 4SM -SN BKN024 OVC050
      TEMPO 0519/0521 3SM -SN BKN015
     FM052200 33012KT 5SM -SN BR BKN020 OVC050
     FM060200 32010KT P6SM SCT020 BKN050
     FM060700 35009KT P6SM FEW050=



000
FTUS41 KOKX 051700
TAFLGA
TAF
KLGA 051732Z 0518/0618 34012G17KT 1SM -SN BR BKN008 OVC015
      TEMPO 0518/0521 1/4SM +SN VV003
     FM052300 34012KT 2SM -SN BR BKN020 OVC050
     FM060000 33011KT P6SM SCT020 BKN050
     FM060800 36009KT P6SM FEW050=



000
FTUS41 KOKX 051700
TAFISP
TAF
KISP 051732Z 0518/0618 35010G17KT 1/2SM SN FZFG OVC005
      TEMPO 0518/0522 1/4SM +SN VV003
     FM052200 35012G18KT 1SM -SN BR BKN008 OVC015
     FM060100 33012KT 3SM -SN BKN020 OVC050
     FM060300 33010KT P6SM SCT020 BKN050
     FM060900 36009KT P6SM FEW050=



000
FTUS41 KOKX 051700
TAFTEB
TAF
KTEB 051732Z 0518/0618 34012G16KT 1SM -SN BR BKN008 OVC015
      TEMPO 0518/0521 1/4SM +SN VV003
     FM052200 33012KT 5SM -SN BR BKN020 OVC050
     FM060200 32010KT P6SM SCT020 BKN050
     FM060700 35009KT P6SM FEW050=



000
FTUS41 KOKX 051700
TAFSWF
TAF
KSWF 051732Z 0518/0624 32009KT P6SM SCT030 OVC100
      TEMPO 0518/0521 5SM -SN BKN040
     FM060200 31007KT P6SM BKN080
     FM061000 VRB05KT P6SM FEW050
      AMD NOT SKED=



000
FTUS41 KOKX 051700
TAFJFK
TAF
KJFK 051732Z 0518/0624 33012G18KT 1SM -SN BR BKN008 OVC015
      TEMPO 0518/0521 1/4SM +SN VV003
     FM052300 33012KT 2SM -SN BR BKN020 OVC050
     FM060000 33012KT P6SM SCT020 BKN050
     FM060800 36009KT P6SM FEW050
     FM061700 35005KT P6SM FEW050=



000
FTUS41 KOKX 051700
TAFBDR
TAF
KBDR 051732Z 0518/0618 33010G16KT 2SM -SN BR BKN008 OVC015
      TEMPO 0518/0521 1/2SM SN OVC007
     FM060100 32008KT 4SM -SN BR BKN020 OVC050
     FM060300 33009KT P6SM SCT020 BKN050
     FM060900 36009KT P6SM FEW050=



000
FTUS41 KOKX 051700
TAFEWR
TAF
KEWR 051732Z 0518/0624 34012G18KT 1SM -SN BR BKN008 OVC015
      TEMPO 0518/0521 1/4SM +SN VV003
     FM052200 33012KT 3SM -SN BR BKN020 OVC050
     FM060200 33012KT P6SM SCT020 BKN050
     FM060700 36009KT P6SM FEW050
     FM061700 33005KT P6SM FEW050=



000
FTUS41 KOKX 051700
TAFGON
TAF
KGON 051732Z 0518/0618 32012G18KT 1SM -SN BR BKN008 OVC015
      TEMPO 0518/0521 1/2SM SN OVC007
     FM052200 33012KT 4SM -SN BR BKN020 OVC050
     FM060200 35010KT P6SM SCT020 BKN050
     FM061000 36006KT P6SM FEW050=



000
FTUS41 KOKX 051400 AAA
TAFBDR
TAF AMD
KBDR 051434Z 0515/0612 36010KT 1SM -SN BR OVC008
      TEMPO 0515/0518 1/2SM SN FZFG
     FM051800 35010G16KT 2SM -SN BR BKN008 OVC015
     FM051900 32008KT 4SM -SN BR BKN020 OVC050
     FM052300 33009KT P6SM SCT020 BKN050
     FM060900 36009KT P6SM FEW050=



000
FTUS41 KOKX 051400 AAA
TAFISP
TAF AMD
KISP 051434Z 0515/0612 35010G17KT 1/2SM SN FZFG OVC005
      TEMPO 0515/0518 1/4SM +SN FZFG
     FM051900 35012G18KT 1SM -SN BR BKN008 OVC015
     FM052100 33012KT 3SM -SN BKN020 OVC050
     FM060000 33010KT P6SM SCT020 BKN050
     FM060900 36009KT P6SM FEW050=



000
FTUS41 KOKX 051400 AAB
TAFSWF
TAF AMD
KSWF 051434Z 0515/0618 33010G16KT 4SM -SN BKN020 BKN040
     FM051800 32009KT P6SM SCT030 OVC100
     FM060200 31007KT P6SM BKN080
     FM061000 VRB05KT P6SM FEW050
      AMD NOT SKED=



000
FTUS41 KOKX 051400 AAA
TAFGON
TAF AMD
KGON 051434Z 0515/0612 35010G17KT 1/2SM SN FZFG OVC008
     FM051800 35012G18KT 2SM -SN BR BKN008 OVC015
     FM052000 33012KT 4SM -SN BR BKN020 OVC050
     FM052200 35010KT P6SM SCT020 BKN050
     FM061000 36006KT P6SM FEW050=



000
FTUS41 KOKX 051400 AAA
TAFEWR
TAF AMD
KEWR 051434Z 0515/0618 34011G19KT 1SM -SN BR OVC006
      TEMPO 0515/0518 1/4SM +SN FZFG
     FM051800 34012G18KT 2SM -SN BR BKN008 OVC015
     FM051900 33012KT 3SM -SN BR BKN020 OVC050
     FM052200 33012KT P6SM SCT020 BKN050
     FM060700 36009KT P6SM FEW050
     FM061700 33005KT P6SM FEW050=



000
FTUS41 KOKX 051400 AAA
TAFTEB
TAF AMD
KTEB 051434Z 0515/0612 35009G17KT 1SM -SN BR OVC007
      TEMPO 0515/0518 1/4SM +SN FZFG
     FM051800 34012G16KT 3SM -SN BR BKN008 OVC015
     FM051900 33012KT 5SM -SN BR BKN020 OVC050
     FM052200 32010KT P6SM SCT020 BKN050
     FM060700 35009KT P6SM FEW050=



000
FTUS41 KOKX 051400 AAA
TAFJFK
TAF AMD
KJFK 051434Z 0515/0618 35012G19KT 1/2SM SN FZFG OVC005
      TEMPO 0515/0518 1/4SM +SN VV003
     FM051800 35012G18KT 1SM -SN BR BKN008 OVC015
     FM052100 33012KT 2SM -SN BR BKN020 OVC050
     FM060000 33012KT P6SM SCT020 BKN050
     FM060800 36009KT P6SM FEW050
     FM061700 35005KT P6SM FEW050=



000
FTUS41 KOKX 051400 AAA
TAFLGA
TAF AMD
KLGA 051434Z 0515/0612 35011G19KT 1/2SM SN FZFG OVC005
      TEMPO 0515/0518 1/4SM +SN VV003
     FM051800 35012G17KT 1SM -SN BR BKN008 OVC015
     FM052100 34012KT 2SM -SN BR BKN020 OVC050
     FM060000 33011KT P6SM SCT020 BKN050
     FM060800 36009KT P6SM FEW050=



000
FTUS41 KOKX 051400 AAB
TAFSWF
TAF AMD
KSWF 051434Z 0515/0618 33010G16KT 4SM -SN BKN020 BKN040
     FM051800 32009KT P6SM SCT030 OVC100
     FM060200 31007KT P6SM BKN080
     FM061000 VRB05KT P6SM FEW050
      AMD NOT SKED=



000
FTUS41 KOKX 051400 AAA
TAFGON
TAF AMD
KGON 051434Z 0515/0612 35010G17KT 1/2SM SN FZFG OVC008
     FM051800 35012G18KT 2SM -SN BR BKN008 OVC015
     FM052000 33012KT 4SM -SN BR BKN020 OVC050
     FM052200 35010KT P6SM SCT020 BKN050
     FM061000 36006KT P6SM FEW050=



000
FTUS41 KOKX 051400 AAA
TAFISP
TAF AMD
KISP 051434Z 0515/0612 35010G17KT 1/2SM SN FZFG OVC005
      TEMPO 0515/0518 1/4SM +SN FZFG
     FM051900 35012G18KT 1SM -SN BR BKN008 OVC015
     FM052100 33012KT 3SM -SN BKN020 OVC050
     FM060000 33010KT P6SM SCT020 BKN050
     FM060900 36009KT P6SM FEW050=



000
FTUS41 KOKX 051400 AAA
TAFEWR
TAF AMD
KEWR 051434Z 0515/0618 34011G19KT 1SM -SN BR OVC006
      TEMPO 0515/0518 1/4SM +SN FZFG
     FM051800 34012G18KT 2SM -SN BR BKN008 OVC015
     FM051900 33012KT 3SM -SN BR BKN020 OVC050
     FM052200 33012KT P6SM SCT020 BKN050
     FM060700 36009KT P6SM FEW050
     FM061700 33005KT P6SM FEW050=



000
FTUS41 KOKX 051400 AAA
TAFLGA
TAF AMD
KLGA 051434Z 0515/0612 35011G19KT 1/2SM SN FZFG OVC005
      TEMPO 0515/0518 1/4SM +SN VV003
     FM051800 35012G17KT 1SM -SN BR BKN008 OVC015
     FM052100 34012KT 2SM -SN BR BKN020 OVC050
     FM060000 33011KT P6SM SCT020 BKN050
     FM060800 36009KT P6SM FEW050=



000
FTUS41 KOKX 051400 AAA
TAFTEB
TAF AMD
KTEB 051434Z 0515/0612 35009G17KT 1SM -SN BR OVC007
      TEMPO 0515/0518 1/4SM +SN FZFG
     FM051800 34012G16KT 3SM -SN BR BKN008 OVC015
     FM051900 33012KT 5SM -SN BR BKN020 OVC050
     FM052200 32010KT P6SM SCT020 BKN050
     FM060700 35009KT P6SM FEW050=



000
FTUS41 KOKX 051400 AAA
TAFBDR
TAF AMD
KBDR 051434Z 0515/0612 36010KT 1SM -SN BR OVC008
      TEMPO 0515/0518 1/2SM SN FZFG
     FM051800 35010G16KT 2SM -SN BR BKN008 OVC015
     FM051900 32008KT 4SM -SN BR BKN020 OVC050
     FM052300 33009KT P6SM SCT020 BKN050
     FM060900 36009KT P6SM FEW050=



000
FTUS41 KOKX 051400 AAA
TAFJFK
TAF AMD
KJFK 051434Z 0515/0618 35012G19KT 1/2SM SN FZFG OVC005
      TEMPO 0515/0518 1/4SM +SN VV003
     FM051800 35012G18KT 1SM -SN BR BKN008 OVC015
     FM052100 33012KT 2SM -SN BR BKN020 OVC050
     FM060000 33012KT P6SM SCT020 BKN050
     FM060800 36009KT P6SM FEW050
     FM061700 35005KT P6SM FEW050=



000
FTUS41 KOKX 051200 AAA
TAFSWF
TAF AMD
KSWF 051245Z 0513/0618 36012G17KT 3SM -SN BR SCT008 OVC015
      TEMPO 0513/0515 1SM -SN
     FM051500 33010G16KT 4SM -SN BKN020 BKN040
     FM051800 32009KT P6SM SCT030 OVC100
     FM060200 31007KT P6SM BKN080
     FM061000 VRB05KT P6SM FEW050
      AMD NOT SKED=



000
FTUS41 KOKX 051200 CCA
TAFSWF
TAF COR
KSWF 051206Z 0512/0618 36012G17KT 1SM -SN BR SCT008 OVC015
     FM051400 33010G16KT 4SM -SN SCT020 BKN060
     FM051800 32009KT P6SM OVC100
     FM060200 31007KT P6SM BKN080
     FM061000 VRB05KT P6SM FEW050
      AMD NOT SKED=



000
FTUS41 KOKX 051200 CCA
TAFBDR
TAF COR
KBDR 051206Z 0512/0612 36008KT 3/4SM -SN BR OVC005
     FM051300 36010KT 1SM -SN BR OVC008
      TEMPO 0513/0517 1/2SM SN FZFG
     FM051700 35010G16KT 2SM -SN BR BKN008 OVC015
     FM051900 32008KT 4SM -SN BR BKN020 OVC050
     FM052300 33009KT P6SM SCT020 BKN050
     FM060900 36009KT P6SM FEW050=



000
FTUS41 KOKX 051200 CCA
TAFISP
TAF COR
KISP 051206Z 0512/0612 35008KT 1SM -SN BR SCT005 OVC015
     FM051230 35010G17KT 1/2SM SN FZFG OVC005
      TEMPO 0513/0517 1/4SM +SN FZFG
     FM051900 35012G18KT 1SM -SN BR BKN008 OVC015
     FM052100 33012KT 3SM -SN BKN020 OVC050
     FM060000 33010KT P6SM SCT020 BKN050
     FM060900 36009KT P6SM FEW050=



000
FTUS41 KOKX 051200 CCA
TAFGON
TAF COR
KGON 051206Z 0512/0612 35010G17KT 1/2SM SN FZFG OVC008
     FM051700 35012G18KT 2SM -SN BR BKN008 OVC015
     FM052000 33012KT 4SM -SN BR BKN020 OVC050
     FM052200 35010KT P6SM SCT020 BKN050
     FM061000 36006KT P6SM FEW050=



000
FTUS41 KOKX 051100 RRA
TAFSWF
TAF
KSWF 051141Z 0512/0618 33010KT 1SM -SN BR SCT008 OVC015
     FM051500 34010G16KT P6SM SCT020 BKN060
     FM051800 32009KT P6SM OVC100
     FM060200 35006KT P6SM SKC
      AMD NOT SKED=



000
FTUS41 KOKX 051100 RRA
TAFBDR
TAF
KBDR 051141Z 0512/0612 36008KT 3/4SM -SN BR OVC005
     FM051300 36010KT 1SM -SN BR OVC008
     FM051800 35010G16KT 2SM -SN BR BKN008 OVC015
     FM052000 32008KT 4SM -SN BR BKN020 OVC050
     FM060000 33009KT P6SM SCT020 BKN050=



000
FTUS41 KOKX 051100 RRA
TAFISP
TAF
KISP 051141Z 0512/0612 35008KT 1SM -SN BR SCT005 OVC015
     FM051230 35010G17KT 1/2SM SN FZFG OVC005
      TEMPO 0513/0517 1/4SM +SN FZFG
     FM051900 35012G18KT 1SM -SN BR BKN008 OVC015
     FM052100 33012KT 4SM -SN BKN020 OVC050=



000
FTUS41 KOKX 051100 RRA
TAFGON
TAF
KGON 051141Z 0512/0612 35008KT 3/4SM -SN BR OVC008
     FM051300 35012G18KT 1SM -SN BR OVC008
     FM051700 35012G18KT 3SM -SN BR SCT008 OVC015
     FM052200 33012KT P6SM BKN020 OVC050=



000
FTUS41 KOKX 051100 RRA
TAFLGA
TAF
KLGA 051141Z 0512/0612 33012KT 1 1/2SM -SN BR SCT008 OVC015
     FM051230 35011G19KT 1/2SM SN FZFG OVC005
      TEMPO 0513/0517 1/4SM +SN VV003
     FM051700 35012G17KT 1SM -SN BR BKN008 OVC015
     FM052100 34012KT 2SM -SN BR BKN020 OVC050
     FM060000 33011KT P6SM SCT020 BKN050
     FM060800 36009KT P6SM FEW050=



000
FTUS41 KOKX 051100 RRA
TAFEWR
TAF
KEWR 051141Z 0512/0618 35010KT 2SM -SN BR SCT007 OVC020
     FM051230 34011G19KT 1SM -SN BR OVC006
      TEMPO 0513/0517 1/4SM +SN FZFG
     FM051700 34012G18KT 2SM -SN BR BKN008 OVC015
     FM051900 33012KT 3SM -SN BR BKN020 OVC050
     FM052200 33012KT P6SM SCT020 BKN050
     FM060700 36009KT P6SM FEW050
     FM061700 33005KT P6SM FEW050=



000
FTUS41 KOKX 051100 RRA
TAFJFK
TAF
KJFK 051141Z 0512/0618 31011KT 2SM -SN BR OVC010
     FM051230 35011G17KT 1/2SM SN FZFG OVC005
      TEMPO 0513/0517 1/4SM +SN VV003
     FM051700 35012G18KT 1SM -SN BR BKN008 OVC015
     FM052100 33012KT 2SM -SN BR BKN020 OVC050
     FM060000 33012KT P6SM SCT020 BKN050
     FM060800 36009KT P6SM FEW050
     FM061700 35005KT P6SM FEW050=



000
FTUS41 KOKX 051100 RRA
TAFEWR
TAF
KEWR 051141Z 0512/0618 35010KT 2SM -SN BR SCT007 OVC020
     FM051230 34011G19KT 1SM -SN BR OVC006
      TEMPO 0513/0517 1/4SM +SN FZFG
     FM051700 34012G18KT 2SM -SN BR BKN008 OVC015
     FM051900 33012KT 3SM -SN BR BKN020 OVC050
     FM052200 33012KT P6SM SCT020 BKN050
     FM060700 36009KT P6SM FEW050
     FM061700 33005KT P6SM FEW050=



000
FTUS41 KOKX 051100 RRA
TAFJFK
TAF
KJFK 051141Z 0512/0618 31011KT 2SM -SN BR OVC010
     FM051230 35011G17KT 1/2SM SN FZFG OVC005
      TEMPO 0513/0517 1/4SM +SN VV003
     FM051700 35012G18KT 1SM -SN BR BKN008 OVC015
     FM052100 33012KT 2SM -SN BR BKN020 OVC050
     FM060000 33012KT P6SM SCT020 BKN050
     FM060800 36009KT P6SM FEW050
     FM061700 35005KT P6SM FEW050=



000
FTUS41 KOKX 051100 RRA
TAFGON
TAF
KGON 051141Z 0512/0612 35008KT 3/4SM -SN BR OVC008
     FM051300 35012G18KT 1SM -SN BR OVC008
     FM051700 35012G18KT 3SM -SN BR SCT008 OVC015
     FM052200 33012KT P6SM BKN020 OVC050=



000
FTUS41 KOKX 051100 RRA
TAFBDR
TAF
KBDR 051141Z 0512/0612 36008KT 3/4SM -SN BR OVC005
     FM051300 36010KT 1SM -SN BR OVC008
     FM051800 35010G16KT 2SM -SN BR BKN008 OVC015
     FM052000 32008KT 4SM -SN BR BKN020 OVC050
     FM060000 33009KT P6SM SCT020 BKN050=



000
FTUS41 KOKX 051100 RRA
TAFTEB
TAF
KTEB 051141Z 0512/0612 34010KT 1SM -SNRA BR SCT007 OVC020
     FM051230 35009G17KT 1SM -SN BR OVC007
      TEMPO 0513/0517 1/4SM +SN FZFG
     FM051700 34012G16KT 3SM -SN BR BKN008 OVC015
     FM051900 33012KT 5SM -SN BR BKN020 OVC050
     FM052200 32010KT P6SM SCT020 BKN050
     FM060700 35009KT P6SM FEW050=



000
FTUS41 KOKX 051100 RRA
TAFLGA
TAF
KLGA 051141Z 0512/0612 33012KT 1 1/2SM -SN BR SCT008 OVC015
     FM051230 35011G19KT 1/2SM SN FZFG OVC005
      TEMPO 0513/0517 1/4SM +SN VV003
     FM051700 35012G17KT 1SM -SN BR BKN008 OVC015
     FM052100 34012KT 2SM -SN BR BKN020 OVC050
     FM060000 33011KT P6SM SCT020 BKN050
     FM060800 36009KT P6SM FEW050=



000
FTUS41 KOKX 051100 RRA
TAFISP
TAF
KISP 051141Z 0512/0612 35008KT 1SM -SN BR SCT005 OVC015
     FM051230 35010G17KT 1/2SM SN FZFG OVC005
      TEMPO 0513/0517 1/4SM +SN FZFG
     FM051900 35012G18KT 1SM -SN BR BKN008 OVC015
     FM052100 33012KT 4SM -SN BKN020 OVC050=



000
FTUS41 KOKX 051100 RRA
TAFSWF
TAF
KSWF 051141Z 0512/0618 33010KT 1SM -SN BR SCT008 OVC015
     FM051500 34010G16KT P6SM SCT020 BKN060
     FM051800 32009KT P6SM OVC100
     FM060200 35006KT P6SM SKC
      AMD NOT SKED=



000
FTUS41 KOKX 051100 RRA
TAFTEB
TAF
KTEB 051141Z 0512/0612 34010KT 1SM -SNRA BR SCT007 OVC020
     FM051230 35009G17KT 1SM -SN BR OVC007
      TEMPO 0513/0517 1/4SM +SN FZFG
     FM051700 34012G16KT 3SM -SN BR BKN008 OVC015
     FM051900 33012KT 5SM -SN BR BKN020 OVC050
     FM052200 32010KT P6SM SCT020 BKN050
     FM060700 35009KT P6SM FEW050=



000
FTUS41 KOKX 051100 CCA
TAFTEB
TAF COR
KTEB 051104Z 0511/0606 34010KT 1SM -SNRA BR SCT007 OVC020
     FM051200 35009G17KT 1SM -SN BR OVC007
      TEMPO 0512/0516 1/4SM +SN FZFG
     FM051700 34012G16KT 3SM -SN BR BKN008 OVC015
     FM051900 33012KT 5SM -SN BR BKN020 OVC050
     FM052200 32010KT P6SM SCT020 BKN050=



000
FTUS41 KOKX 051100 CCA
TAFEWR
TAF COR
KEWR 051104Z 0511/0612 35010KT 2SM -SN BR SCT007 OVC020
     FM051200 34011G19KT 1SM -SN BR OVC006
      TEMPO 0512/0516 1/4SM +SN FZFG
     FM051700 34012G18KT 2SM -SN BR BKN008 OVC015
     FM051900 33012KT 3SM -SN BR BKN020 OVC050
     FM052200 33012KT P6SM SCT020 BKN050
     FM060700 36009KT P6SM SCT050=



000
FTUS41 KOKX 051100 AAD
TAFTEB
TAF AMD
KTEB 051101Z 0511/0606 34010KT 1SM -SNRA BR SCT007 OVC020
     FM051200 35009G17KT 1SM -SN BR OVC007
      TEMPO 0512/0516 1/4SM +SN FZFG
     FM051700 34012G16KT 3SM -SN BR BKN008 OVC015
     FM051900 33012KT 5SM -SN BR BKN020 OVC050
     FM052200 32010KT P6SM BKN020 OVC050=



000
FTUS41 KOKX 051100 AAD
TAFEWR
TAF AMD
KEWR 051101Z 0511/0612 35010KT 2SM -SN BR SCT007 OVC020
     FM051200 34011G19KT 1SM -SN BR OVC006
      TEMPO 0512/0516 1/4SM +SN FZFG
     FM051700 34012G18KT 2SM -SN BR BKN008 OVC015
     FM051900 33012KT 3SM -SN BR BKN020 OVC050
     FM052200 33012KT P6SM SCT020 BKN050=



000
FTUS41 KOKX 051000 AAD
TAFLGA
TAF AMD
KLGA 051041Z 0511/0606 33012KT 1 1/2SM -SN BR SCT008 OVC015
     FM051130 35011G19KT 1/2SM SN FZFG OVC005
      TEMPO 0512/0516 1/4SM +SN VV003
     FM051700 35012G17KT 1SM -SN BR BKN008 OVC015
     FM052100 34012KT 2SM -SN BR BKN020 OVC050
     FM060000 33011KT P6SM SCT020 BKN050=



000
FTUS41 KOKX 051000 AAC
TAFJFK
TAF AMD
KJFK 051034Z 0511/0612 31011KT 2SM -SN BR OVC010
     FM051130 35011G17KT 1/2SM SN FZFG OVC005
      TEMPO 0512/0516 1/4SM +SN VV003
     FM051700 35012G18KT 1SM -SN BR BKN008 OVC015
     FM052100 33012KT 2SM -SN BR BKN020 OVC050
     FM060000 33012KT P6SM SCT020 BKN050
     FM060800 36008KT P6SM SCT050=



000
FTUS41 KOKX 050900 AAC
TAFTEB
TAF AMD
KTEB 050920Z 0509/0606 34010KT 3SM -SNRA BR SCT006 OVC025
      TEMPO 0509/0510 1SM -SN BKN015
     FM051000 35006KT 1/2SM SN FZFG OVC006
     FM051200 35010KT 1SM -SN BR OVC005
     FM051600 34010G16KT 2SM -SN BR SCT005 OVC015
     FM052200 32010KT P6SM BKN020 OVC050=



000
FTUS41 KOKX 050900 AAC
TAFEWR
TAF AMD
KEWR 050920Z 0509/0612 35010KT 2SM -SNRA BR BKN007 OVC025
     FM051000 34011KT 1/2SM SN FZFG OVC007
     FM051200 34012G18KT 1SM -SN BR OVC008
     FM051600 34012G18KT 2SM -SN BR SCT008 OVC015
     FM052200 32012KT P6SM BKN020 OVC050
     FM060200 33012KT P6SM SCT020 BKN050=



000
FTUS41 KOKX 050900 AAB
TAFISP
TAF AMD
KISP 050920Z 0509/0606 33008KT 5SM -RA BR BKN015 OVC035
     FM051000 35008KT 1SM -SNPLRA BR SCT005 OVC015
     FM051100 35010KT 1/2SM SN FZFG OVC005
     FM051300 35012G18KT 1SM -SN BR OVC007
     FM051700 35012G18KT 2SM -SN BR SCT008 OVC015
     FM052300 33012KT P6SM BKN020 OVC050=



000
FTUS41 KOKX 050900 AAB
TAFSWF
TAF AMD
KSWF 050920Z 0509/0612 30008KT 3SM -SN BR SCT015 OVC025
     FM051000 33010KT 1SM -SN BR SCT008 OVC015
     FM051500 34010G16KT P6SM SCT020 BKN060
     FM051800 32009KT P6SM OVC100
     FM060200 35006KT P6SM SKC
      AMD NOT SKED=



000
FTUS41 KOKX 050900 AAB
TAFBDR
TAF AMD
KBDR 050920Z 0509/0606 33006KT 3SM -SN BR SCT008 OVC015
     FM051030 36008KT 3/4SM -SN BR OVC005
     FM051300 36010KT 1SM -SN BR OVC008
     FM051700 35010G16KT 2SM -SN BR SCT008 OVC015
     FM052300 32008KT P6SM BKN020 OVC050=



000
FTUS41 KOKX 050900 AAB
TAFGON
TAF AMD
KGON 050920Z 0509/0606 33007KT 2SM -SN BR BKN007 OVC015
     FM051030 35008KT 3/4SM -SN BR OVC008
     FM051300 35012G18KT 1SM -SN BR OVC008
     FM051700 35012G18KT 3SM -SN BR SCT008 OVC015
     FM052200 33012KT P6SM BKN020 OVC050=



000
FTUS41 KOKX 050900 AAC
TAFLGA
TAF AMD
KLGA 050920Z 0509/0606 34009KT 3SM -SNRA BR BKN008 OVC012
     FM051000 35009KT 1/2SM SN FZFG OVC008
     FM051200 35012G18KT 1SM -SN BR OVC008
     FM051600 35012G18KT 2SM -SN BR SCT008 OVC015
     FM052200 33012KT P6SM BKN020 OVC050=



000
FTUS41 KOKX 050800 AAB
TAFJFK
TAF AMD
KJFK 050809Z 0508/0612 31008KT 5SM -RA BR OVC020
     FM050900 31009KT 3SM -RASNPL BR SCT008 OVC015
     FM051030 35009KT 1/2SM SN FZFG OVC008
     FM051200 35012G18KT 1SM -SN BR OVC008
     FM051600 35012G18KT 2SM -SN BR SCT008 OVC015
     FM052200 33012KT P6SM BKN020 OVC050
     FM060200 33012KT P6SM SCT020 BKN050=



000
FTUS41 KOKX 050800 AAB
TAFLGA
TAF AMD
KLGA 050809Z 0508/0606 32010KT 5SM -RA BR OVC015
     FM050830 34009KT 3SM -RASNPL BR SCT008 OVC012
     FM051000 35009KT 1/2SM SN FZFG OVC008
     FM051200 35012G18KT 1SM -SN BR OVC008
     FM051600 35012G18KT 2SM -SN BR SCT008 OVC015
     FM052200 33012KT P6SM BKN020 OVC050=



000
FTUS41 KOKX 050800 AAB
TAFJFK
TAF AMD
KJFK 050809Z 0508/0612 31008KT 5SM -RA BR OVC020
     FM050900 31009KT 3SM -RASNPL BR SCT008 OVC015
     FM051030 35009KT 1/2SM SN FZFG OVC008
     FM051200 35012G18KT 1SM -SN BR OVC008
     FM051600 35012G18KT 2SM -SN BR SCT008 OVC015
     FM052200 33012KT P6SM BKN020 OVC050
     FM060200 33012KT P6SM SCT020 BKN050=



000
FTUS41 KOKX 050700 AAB
TAFTEB
TAF AMD
KTEB 050747Z 0508/0606 34010KT 3SM -RASNPL BR SCT006 OVC025
      TEMPO 0509/0510 1SM -RASNPL BKN015
     FM051000 35006KT 1/2SM SN FZFG OVC006
     FM051200 35010KT 1SM -SN BR OVC005
     FM051600 34010G16KT 2SM -SN BR SCT005 OVC015
     FM052200 32010KT P6SM BKN020 OVC050=



000
FTUS41 KOKX 050700 AAB
TAFEWR
TAF AMD
KEWR 050747Z 0508/0612 33010KT 3SM -RASNPL BR SCT007 OVC025
      TEMPO 0509/0510 1SM -RASNPL BKN015
     FM051000 34008KT 1/2SM SN FZFG OVC007
     FM051200 34012G18KT 1SM -SN BR OVC008
     FM051600 34012G18KT 2SM -SN BR SCT008 OVC015
     FM052200 32012KT P6SM BKN020 OVC050
     FM060200 33012KT P6SM SCT020 BKN050=



000
FTUS41 KOKX 050700 AAB
TAFTEB
TAF AMD
KTEB 050747Z 0508/0606 34010KT 3SM -RASNPL BR SCT006 OVC025
      TEMPO 0509/0510 1SM -RASNPL BKN015
     FM051000 35006KT 1/2SM SN FZFG OVC006
     FM051200 35010KT 1SM -SN BR OVC005
     FM051600 34010G16KT 2SM -SN BR SCT005 OVC015
     FM052200 32010KT P6SM BKN020 OVC050=



000
FTUS41 KOKX 050700 AAB
TAFEWR
TAF AMD
KEWR 050747Z 0508/0612 33010KT 3SM -RASNPL BR SCT007 OVC025
      TEMPO 0509/0510 1SM -RASNPL BKN015
     FM051000 34008KT 1/2SM SN FZFG OVC007
     FM051200 34012G18KT 1SM -SN BR OVC008
     FM051600 34012G18KT 2SM -SN BR SCT008 OVC015
     FM052200 32012KT P6SM BKN020 OVC050
     FM060200 33012KT P6SM SCT020 BKN050=



000
FTUS41 KOKX 050700 AAA
TAFBDR
TAF AMD
KBDR 050744Z 0508/0606 VRB05KT 1SM RA BR OVC050
     FM050830 33006KT 1SM -RASNPL BR SCT008 OVC015
     FM051030 36008KT 3/4SM -SN BR OVC005
     FM051300 36010KT 1SM -SN BR OVC008
     FM051700 35010G16KT 2SM -SN BR SCT008 OVC015
     FM052300 32008KT P6SM BKN020 OVC050=



000
FTUS41 KOKX 050700 AAA
TAFISP
TAF AMD
KISP 050744Z 0508/0606 VRB05KT 3SM -RA BR SCT015 OVC035
      TEMPO 0509/0510 BKN015
     FM051000 35006KT 1SM -RASNPL BR SCT005 OVC015
     FM051100 35008KT 1/2SM SN FZFG OVC005
     FM051300 35012G18KT 1SM -SN BR OVC007
     FM051700 35012G18KT 2SM -SN BR SCT008 OVC015
     FM052300 33012KT P6SM BKN020 OVC050=



000
FTUS41 KOKX 050700 AAA
TAFGON
TAF AMD
KGON 050744Z 0508/0606 VRB03KT 1SM RA BR BKN006 OVC040
     FM050830 33007KT 2SM -RASNPL BR BKN007 OVC015
     FM051030 35008KT 3/4SM -SN BR OVC008
     FM051300 35012G18KT 1SM -SN BR OVC008
     FM051700 35012G18KT 3SM -SN BR SCT008 OVC015
     FM052200 33012KT P6SM BKN020 OVC050=



000
FTUS41 KOKX 050700 AAA
TAFSWF
TAF AMD
KSWF 050744Z 0508/0612 30008KT 3SM -SN BR SCT015 OVC025
     FM051000 33010KT 1SM -SN BR SCT008 OVC015
     FM051500 34010G16KT P6SM SCT020 BKN060
     FM051800 32009KT P6SM OVC100
     FM060200 35006KT P6SM SKC
      AMD NOT SKED=



000
FTUS41 KOKX 050700 AAA
TAFBDR
TAF AMD
KBDR 050744Z 0508/0606 VRB05KT 1SM RA BR OVC050
     FM050830 33006KT 1SM -RASNPL BR SCT008 OVC015
     FM051030 36008KT 3/4SM -SN BR OVC005
     FM051300 36010KT 1SM -SN BR OVC008
     FM051700 35010G16KT 2SM -SN BR SCT008 OVC015
     FM052300 32008KT P6SM BKN020 OVC050=



000
FTUS41 KOKX 050700 AAA
TAFSWF
TAF AMD
KSWF 050744Z 0508/0612 30008KT 3SM -SN BR SCT015 OVC025
     FM051000 33010KT 1SM -SN BR SCT008 OVC015
     FM051500 34010G16KT P6SM SCT020 BKN060
     FM051800 32009KT P6SM OVC100
     FM060200 35006KT P6SM SKC
      AMD NOT SKED=



000
FTUS41 KOKX 050700 AAA
TAFGON
TAF AMD
KGON 050744Z 0508/0606 VRB03KT 1SM RA BR BKN006 OVC040
     FM050830 33007KT 2SM -RASNPL BR BKN007 OVC015
     FM051030 35008KT 3/4SM -SN BR OVC008
     FM051300 35012G18KT 1SM -SN BR OVC008
     FM051700 35012G18KT 3SM -SN BR SCT008 OVC015
     FM052200 33012KT P6SM BKN020 OVC050=



000
FTUS41 KOKX 050700 AAA
TAFISP
TAF AMD
KISP 050744Z 0508/0606 VRB05KT 3SM -RA BR SCT015 OVC035
      TEMPO 0509/0510 BKN015
     FM051000 35006KT 1SM -RASNPL BR SCT005 OVC015
     FM051100 35008KT 1/2SM SN FZFG OVC005
     FM051300 35012G18KT 1SM -SN BR OVC007
     FM051700 35012G18KT 2SM -SN BR SCT008 OVC015
     FM052300 33012KT P6SM BKN020 OVC050=



000
FTUS41 KOKX 050700 AAA
TAFEWR
TAF AMD
KEWR 050734Z 0508/0612 28006KT 3SM -RA BR SCT007 OVC035
     FM050900 33008KT 1SM -RASNPL BR SCT007 OVC015
     FM051000 34008KT 1/2SM SN FZFG OVC007
     FM051200 34012G18KT 1SM -SN BR OVC008
     FM051600 34012G18KT 2SM -SN BR SCT008 OVC015
     FM052200 32012KT P6SM BKN020 OVC050
     FM060200 33012KT P6SM SCT020 BKN050=



000
FTUS41 KOKX 050700 AAA
TAFTEB
TAF AMD
KTEB 050734Z 0508/0606 VRB03KT 3SM -RA BR OVC015
     FM050900 34006KT 1SM -RASNPL BR SCT006 OVC010
     FM051000 35006KT 1/2SM SN FZFG OVC006
     FM051200 35010KT 1SM -SN BR OVC005
     FM051600 34010G16KT 2SM -SN BR SCT005 OVC015
     FM052200 32010KT P6SM BKN020 OVC050=



000
FTUS41 KOKX 050700 AAA
TAFJFK
TAF AMD
KJFK 050734Z 0508/0612 28006KT 6SM -RA BR OVC040
     FM050830 29007KT 4SM -RA BR OVC030
     FM050930 31008KT 1SM -RASNPL BR SCT008 OVC015
     FM051030 35008KT 1/2SM SN FZFG OVC008
     FM051200 35012G18KT 1SM -SN BR OVC008
     FM051600 35012G18KT 2SM -SN BR SCT008 OVC015
     FM052200 33012KT P6SM BKN020 OVC050
     FM060200 33012KT P6SM SCT020 BKN050=



000
FTUS41 KOKX 050700 AAA
TAFTEB
TAF AMD
KTEB 050734Z 0508/0606 VRB03KT 3SM -RA BR OVC015
     FM050900 34006KT 1SM -RASNPL BR SCT006 OVC010
     FM051000 35006KT 1/2SM SN FZFG OVC006
     FM051200 35010KT 1SM -SN BR OVC005
     FM051600 34010G16KT 2SM -SN BR SCT005 OVC015
     FM052200 32010KT P6SM BKN020 OVC050=



000
FTUS41 KOKX 050700 AAA
TAFLGA
TAF AMD
KLGA 050734Z 0508/0606 30010KT 5SM -RA BR OVC020
     FM050900 34008KT 1SM -RASNPL BR SCT008 OVC015
     FM051000 35008KT 1/2SM SN FZFG OVC008
     FM051200 35012G18KT 1SM -SN BR OVC008
     FM051600 35012G18KT 2SM -SN BR SCT008 OVC015
     FM052200 33012KT P6SM BKN020 OVC050=



000
FTUS41 KOKX 050700 AAA
TAFEWR
TAF AMD
KEWR 050734Z 0508/0612 28006KT 3SM -RA BR SCT007 OVC035
     FM050900 33008KT 1SM -RASNPL BR SCT007 OVC015
     FM051000 34008KT 1/2SM SN FZFG OVC007
     FM051200 34012G18KT 1SM -SN BR OVC008
     FM051600 34012G18KT 2SM -SN BR SCT008 OVC015
     FM052200 32012KT P6SM BKN020 OVC050
     FM060200 33012KT P6SM SCT020 BKN050=



000
FTUS41 KOKX 050700 AAA
TAFJFK
TAF AMD
KJFK 050734Z 0508/0612 28006KT 6SM -RA BR OVC040
     FM050830 29007KT 4SM -RA BR OVC030
     FM050930 31008KT 1SM -RASNPL BR SCT008 OVC015
     FM051030 35008KT 1/2SM SN FZFG OVC008
     FM051200 35012G18KT 1SM -SN BR OVC008
     FM051600 35012G18KT 2SM -SN BR SCT008 OVC015
     FM052200 33012KT P6SM BKN020 OVC050
     FM060200 33012KT P6SM SCT020 BKN050=



000
FTUS41 KOKX 050700 AAA
TAFLGA
TAF AMD
KLGA 050734Z 0508/0606 30010KT 5SM -RA BR OVC020
     FM050900 34008KT 1SM -RASNPL BR SCT008 OVC015
     FM051000 35008KT 1/2SM SN FZFG OVC008
     FM051200 35012G18KT 1SM -SN BR OVC008
     FM051600 35012G18KT 2SM -SN BR SCT008 OVC015
     FM052200 33012KT P6SM BKN020 OVC050=



000
FTUS41 KOKX 050500
TAFJFK
TAF
KJFK 050539Z 0506/0612 26008KT 3SM -RA BR OVC035
     FM050700 33008KT 1SM -RASNPL BR SCT008 OVC015
     FM050900 35008KT 1/2SM SN FZFG OVC008
     FM051200 35012G18KT 1SM -SN BR OVC008
     FM051600 35012G18KT 2SM -SN BR SCT008 OVC015
     FM052200 33012KT P6SM BKN020 OVC050
     FM060200 33012KT P6SM SCT020 BKN050=



000
FTUS41 KOKX 050500
TAFBDR
TAF
KBDR 050539Z 0506/0606 VRB05KT 1SM RA BR OVC050
     FM050700 34006KT 1SM -RASNPL BR SCT008 OVC015
     FM050900 36006KT 1/2SM SN FZFG OVC005
     FM051300 36010KT 1SM -SN BR OVC008
     FM051700 35010G16KT 2SM -SN BR SCT008 OVC015
     FM052300 32008KT P6SM BKN020 OVC050=



000
FTUS41 KOKX 050500
TAFTEB
TAF
KTEB 050539Z 0506/0606 VRB03KT 3SM -RA BR OVC050
     FM050700 34006KT 1SM -RASNPL BR SCT008 OVC015
     FM050900 35006KT 1/2SM SN FZFG OVC008
     FM051200 35010KT 1SM -SN BR OVC008
     FM051600 34010G16KT 2SM -SN BR SCT008 OVC015
     FM052200 32010KT P6SM BKN020 OVC050=



000
FTUS41 KOKX 050500
TAFGON
TAF
KGON 050539Z 0506/0606 VRB03KT 1SM RA BR BKN006 OVC040
      TEMPO 0506/0507 SCT006
     FM050700 VRB04KT 2SM -RASNPL BR BKN007 OVC015
     FM050900 35008KT 1/2SM SN FZFG OVC008
     FM051300 35012G18KT 1SM -SN BR OVC008
     FM051700 35012G18KT 3SM -SN BR SCT008 OVC015
     FM052200 33012KT P6SM BKN020 OVC050=



000
FTUS41 KOKX 050500
TAFBDR
TAF
KBDR 050539Z 0506/0606 VRB05KT 1SM RA BR OVC050
     FM050700 34006KT 1SM -RASNPL BR SCT008 OVC015
     FM050900 36006KT 1/2SM SN FZFG OVC005
     FM051300 36010KT 1SM -SN BR OVC008
     FM051700 35010G16KT 2SM -SN BR SCT008 OVC015
     FM052300 32008KT P6SM BKN020 OVC050=



000
FTUS41 KOKX 050500
TAFJFK
TAF
KJFK 050539Z 0506/0612 26008KT 3SM -RA BR OVC035
     FM050700 33008KT 1SM -RASNPL BR SCT008 OVC015
     FM050900 35008KT 1/2SM SN FZFG OVC008
     FM051200 35012G18KT 1SM -SN BR OVC008
     FM051600 35012G18KT 2SM -SN BR SCT008 OVC015
     FM052200 33012KT P6SM BKN020 OVC050
     FM060200 33012KT P6SM SCT020 BKN050=



000
FTUS41 KOKX 050500
TAFTEB
TAF
KTEB 050539Z 0506/0606 VRB03KT 3SM -RA BR OVC050
     FM050700 34006KT 1SM -RASNPL BR SCT008 OVC015
     FM050900 35006KT 1/2SM SN FZFG OVC008
     FM051200 35010KT 1SM -SN BR OVC008
     FM051600 34010G16KT 2SM -SN BR SCT008 OVC015
     FM052200 32010KT P6SM BKN020 OVC050=



000
FTUS41 KOKX 050500
TAFGON
TAF
KGON 050539Z 0506/0606 VRB03KT 1SM RA BR BKN006 OVC040
      TEMPO 0506/0507 SCT006
     FM050700 VRB04KT 2SM -RASNPL BR BKN007 OVC015
     FM050900 35008KT 1/2SM SN FZFG OVC008
     FM051300 35012G18KT 1SM -SN BR OVC008
     FM051700 35012G18KT 3SM -SN BR SCT008 OVC015
     FM052200 33012KT P6SM BKN020 OVC050=



000
FTUS41 KOKX 050500
TAFSWF
TAF
KSWF 050539Z 0506/0612 28010KT P6SM -RA OVC050
     FM050700 30008KT 1SM -SN BR SCT015 OVC025
     FM051200 33010KT 2SM -SN BR SCT008 OVC015
     FM051500 34010G16KT P6SM SCT020 BKN060
     FM051800 32009KT P6SM OVC100
     FM060200 35006KT P6SM SKC
      AMD NOT SKED=



000
FTUS41 KOKX 050500
TAFISP
TAF
KISP 050539Z 0506/0606 VRB05KT 1 1/2SM RA BR SCT006 OVC035
      TEMPO 0506/0508 BKN006
     FM050800 35006KT 1SM -RASNPL BR SCT005 OVC015
     FM051000 35008KT 1/2SM SN FZFG OVC005
     FM051300 35012G18KT 1SM -SN BR OVC007
     FM051700 35012G18KT 2SM -SN BR SCT008 OVC015
     FM052300 33012KT P6SM BKN020 OVC050=



000
FTUS41 KOKX 050500
TAFSWF
TAF
KSWF 050539Z 0506/0612 28010KT P6SM -RA OVC050
     FM050700 30008KT 1SM -SN BR SCT015 OVC025
     FM051200 33010KT 2SM -SN BR SCT008 OVC015
     FM051500 34010G16KT P6SM SCT020 BKN060
     FM051800 32009KT P6SM OVC100
     FM060200 35006KT P6SM SKC
      AMD NOT SKED=



000
FTUS41 KOKX 050500
TAFLGA
TAF
KLGA 050539Z 0506/0606 26010KT 5SM -RA BR OVC035
     FM050700 34008KT 1SM -RASNPL BR SCT008 OVC015
     FM050900 35008KT 1/2SM SN FZFG OVC008
     FM051200 35012G18KT 1SM -SN BR OVC008
     FM051600 35012G18KT 2SM -SN BR SCT008 OVC015
     FM052200 33012KT P6SM BKN020 OVC050=



000
FTUS41 KOKX 050500
TAFEWR
TAF
KEWR 050539Z 0506/0612 28008KT 3SM -RA BR SCT007 OVC035
     FM050700 33008KT 1SM -RASNPL BR SCT007 OVC015
     FM050900 34008KT 1/2SM SN FZFG OVC007
     FM051200 34012G18KT 1SM -SN BR OVC008
     FM051600 34012G18KT 2SM -SN BR SCT008 OVC015
     FM052200 32012KT P6SM BKN020 OVC050
     FM060200 33012KT P6SM SCT020 BKN050=



000
FTUS41 KOKX 050500
TAFLGA
TAF
KLGA 050539Z 0506/0606 26010KT 5SM -RA BR OVC035
     FM050700 34008KT 1SM -RASNPL BR SCT008 OVC015
     FM050900 35008KT 1/2SM SN FZFG OVC008
     FM051200 35012G18KT 1SM -SN BR OVC008
     FM051600 35012G18KT 2SM -SN BR SCT008 OVC015
     FM052200 33012KT P6SM BKN020 OVC050=



000
FTUS41 KOKX 050500
TAFISP
TAF
KISP 050539Z 0506/0606 VRB05KT 1 1/2SM RA BR SCT006 OVC035
      TEMPO 0506/0508 BKN006
     FM050800 35006KT 1SM -RASNPL BR SCT005 OVC015
     FM051000 35008KT 1/2SM SN FZFG OVC005
     FM051300 35012G18KT 1SM -SN BR OVC007
     FM051700 35012G18KT 2SM -SN BR SCT008 OVC015
     FM052300 33012KT P6SM BKN020 OVC050=



000
FTUS41 KOKX 050500
TAFEWR
TAF
KEWR 050539Z 0506/0612 28008KT 3SM -RA BR SCT007 OVC035
     FM050700 33008KT 1SM -RASNPL BR SCT007 OVC015
     FM050900 34008KT 1/2SM SN FZFG OVC007
     FM051200 34012G18KT 1SM -SN BR OVC008
     FM051600 34012G18KT 2SM -SN BR SCT008 OVC015
     FM052200 32012KT P6SM BKN020 OVC050
     FM060200 33012KT P6SM SCT020 BKN050=



000
FTUS41 KOKX 050200 AAA
TAFSWF
TAF AMD
KSWF 050228Z 0502/0606 29005KT P6SM OVC050
     FM050400 30005KT 1SM -SN BR OVC008
     FM051200 33010KT 2SM -SN BR SCT008 OVC015
     FM051500 34010G16KT P6SM SCT020 BKN060
     FM051800 32009KT P6SM OVC100
      AMD NOT SKED=



000
FTUS41 KOKX 050200 AAA
TAFEWR
TAF AMD
KEWR 050228Z 0502/0606 25008KT 3SM -RA BR SCT006 OVC025
      TEMPO 0502/0505 2SM -RA BR BKN006
     FM050500 33008KT 1SM -RASNPL BR OVC006
     FM050700 34008KT 1/2SM SN FZFG OVC005
     FM051200 34012G18KT 1SM -SN BR OVC008
     FM051600 34012G18KT 2SM -SN BR SCT008 OVC015
     FM052200 32012KT P6SM BKN020 OVC050 PROB30 0522/0602 2SM -SN
      BKN008 OVC015
     FM060200 33012KT P6SM SCT020 BKN050=



000
FTUS41 KOKX 050200 AAA
TAFBDR
TAF AMD
KBDR 050228Z 0502/0524 VRB03KT 3SM -RA BR OVC040
      TEMPO 0502/0503 2SM -RA BR SCT008 OVC025
     FM050300 VRB03KT 2SM -RA BR SCT008 OVC025
     FM050500 34006KT 1SM -RASNPL BR OVC008
     FM050700 36006KT 1/2SM SN FZFG OVC005
     FM051300 36010KT 1SM -SN BR OVC008
     FM051700 35010G16KT 2SM -SN BR SCT008 OVC015
     FM052300 32008KT P6SM BKN020 OVC050=



000
FTUS41 KOKX 050200 AAA
TAFJFK
TAF AMD
KJFK 050228Z 0502/0606 26008KT 3SM -RA BR SCT008 OVC025
      TEMPO 0502/0505 1SM -RA BR
     FM050500 33008KT 1SM -RASNPL BR OVC008
     FM050700 35008KT 1/2SM SN FZFG OVC005
     FM051200 35012G18KT 1SM -SN BR OVC008
     FM051600 35012G18KT 2SM -SN BR SCT008 OVC015
     FM052200 33012KT P6SM BKN020 OVC050 PROB30 0522/0602 2SM -SN
      BKN008 OVC015
     FM060200 33012KT P6SM SCT020 BKN050=



000
FTUS41 KOKX 050200 AAA
TAFTEB
TAF AMD
KTEB 050228Z 0502/0524 VRB06KT 3SM -RA BR SCT008 OVC025
      TEMPO 0502/0505 2SM -RA BR
     FM050500 34006KT 1SM -RASNPL BR OVC008
     FM050700 35006KT 1/2SM SN FZFG OVC005
     FM051200 35010KT 1SM -SN BR OVC008
     FM051600 34010G16KT 2SM -SN BR SCT008 OVC015
     FM052200 32010KT P6SM BKN020 OVC050 PROB30 0522/0524 2SM -SN
      BKN008 OVC015=



000
FTUS41 KOKX 050200 AAA
TAFGON
TAF AMD
KGON 050228Z 0502/0524 25006KT 4SM BR OVC040
      TEMPO 0502/0503 2SM -RA BR SCT008 OVC025
     FM050300 VRB04KT 2SM -RASNPL BR OVC008
     FM050700 35008KT 1/2SM SN FZFG OVC005
     FM051300 35012G18KT 1SM -SN BR OVC008
     FM051700 35012G18KT 3SM -SN BR SCT008 OVC015
     FM052200 33012KT P6SM BKN020 OVC050=



000
FTUS41 KOKX 050200 AAA
TAFISP
TAF AMD
KISP 050228Z 0502/0524 25008KT 3SM BR OVC030
     FM050300 VRB04KT 2SM -RA BR BKN008 OVC025
     FM050600 35006KT 1SM -RASNPL BR OVC008
     FM050800 35008KT 1/2SM SN FZFG OVC005
     FM051300 35012G18KT 1SM -SN BR OVC008
     FM051700 35012G18KT 2SM -SN BR SCT008 OVC015
     FM052300 33012KT P6SM BKN020 OVC050=



000
FTUS41 KOKX 050200 AAA
TAFLGA
TAF AMD
KLGA 050228Z 0502/0524 25008KT 3SM -RA BR SCT008 OVC025
      TEMPO 0502/0505 1SM -RA BR
     FM050500 34008KT 1SM -RASNPL BR OVC008
     FM050700 35008KT 1/2SM SN FZFG OVC005
     FM051200 35012G18KT 1SM -SN BR OVC008
     FM051600 35012G18KT 2SM -SN BR SCT008 OVC015
     FM052200 33012KT P6SM BKN020 OVC050 PROB30 0522/0524 2SM -SN
      BKN008 OVC015=



000
FTUS41 KOKX 042300
TAFISP
TAF
KISP 042331Z 0500/0524 22008KT 3SM BR BKN003 OVC050
      TEMPO 0500/0503 2SM -RA BR BKN005 OVC025
     FM050300 VRB04KT 2SM -RA BR BKN008 OVC025
     FM050600 35006KT 1SM -RASNPL BR OVC008
     FM050800 35008KT 1/2SM SN FZFG OVC005
     FM051300 35012G18KT 1SM -SN BR OVC008
     FM051700 35012G18KT 2SM -SN BR SCT008 OVC015
     FM052300 33012KT P6SM BKN020 OVC050=



000
FTUS41 KOKX 042300
TAFGON
TAF
KGON 042331Z 0500/0524 VRB04KT 6SM BR OVC100
      TEMPO 0501/0503 2SM -RA BR SCT008 OVC025
     FM050300 VRB04KT 2SM -RASNPL BR OVC008
     FM050700 35008KT 1/2SM SN FZFG OVC005
     FM051300 35012G18KT 1SM -SN BR OVC008
     FM051700 35012G18KT 3SM -SN BR SCT008 OVC015
     FM052200 33012KT P6SM BKN020 OVC050=



000
FTUS41 KOKX 042300
TAFEWR
TAF
KEWR 042331Z 0500/0606 20008KT 6SM -RA BR FEW008 BKN050 OVC080
      TEMPO 0500/0502 2SM -RA BR SCT008 OVC025
     FM050200 28008KT 2SM -RA BR SCT008 OVC025
     FM050500 33008KT 1SM -RASNPL BR OVC008
     FM050700 34008KT 1/2SM SN FZFG OVC005
     FM051200 34012G18KT 1SM -SN BR OVC008
     FM051600 34012G18KT 2SM -SN BR SCT008 OVC015
     FM052200 32012KT P6SM BKN020 OVC050 PROB30 0522/0602 2SM -SN
      BKN008 OVC015
     FM060200 33012KT P6SM SCT020 BKN050=



000
FTUS41 KOKX 042300
TAFLGA
TAF
KLGA 042331Z 0500/0524 22011KT 6SM -RA BR BKN050 OVC080
      TEMPO 0500/0502 2SM -RA BR SCT008 OVC025
     FM050200 30008KT 2SM -RA BR SCT008 OVC025
     FM050500 34008KT 1SM -RASNPL BR OVC008
     FM050700 35008KT 1/2SM SN FZFG OVC005
     FM051200 35012G18KT 1SM -SN BR OVC008
     FM051600 35012G18KT 2SM -SN BR SCT008 OVC015
     FM052200 33012KT P6SM BKN020 OVC050 PROB30 0522/0524 2SM -SN
      BKN008 OVC015=



000
FTUS41 KOKX 042300
TAFBDR
TAF
KBDR 042331Z 0500/0524 VRB03KT 6SM BR BKN050 OVC080
      TEMPO 0500/0503 2SM -RA BR SCT008 OVC025
     FM050300 VRB03KT 2SM -RA BR SCT008 OVC025
     FM050500 34006KT 1SM -RASNPL BR OVC008
     FM050700 36006KT 1/2SM SN FZFG OVC005
     FM051300 36010KT 1SM -SN BR OVC008
     FM051700 35010G16KT 2SM -SN BR SCT008 OVC015
     FM052300 32008KT P6SM BKN020 OVC050=



000
FTUS41 KOKX 042300
TAFJFK
TAF
KJFK 042331Z 0500/0606 22012KT 5SM BR BKN050 OVC080
      TEMPO 0500/0502 2SM -RA BR SCT008 OVC025
     FM050200 28008KT 2SM -RA BR SCT008 OVC025
     FM050500 33008KT 1SM -RASNPL BR OVC008
     FM050700 35008KT 1/2SM SN FZFG OVC005
     FM051200 35012G18KT 1SM -SN BR OVC008
     FM051600 35012G18KT 2SM -SN BR SCT008 OVC015
     FM052200 33012KT P6SM BKN020 OVC050 PROB30 0522/0602 2SM -SN
      BKN008 OVC015
     FM060200 33012KT P6SM SCT020 BKN050=



000
FTUS41 KOKX 042300
TAFTEB
TAF
KTEB 042331Z 0500/0524 22010KT 6SM -RA BR BKN050 OVC080
      TEMPO 0500/0502 2SM -RA BR SCT008 OVC025
     FM050200 28006KT 2SM -RA BR SCT008 OVC025
     FM050500 34006KT 1SM -RASNPL BR OVC008
     FM050700 35006KT 1/2SM SN FZFG OVC005
     FM051200 35010KT 1SM -SN BR OVC008
     FM051600 34010G16KT 2SM -SN BR SCT008 OVC015
     FM052200 32010KT P6SM BKN020 OVC050 PROB30 0522/0524 2SM -SN
      BKN008 OVC015=



000
FTUS41 KOKX 042300
TAFSWF
TAF
KSWF 042331Z 0500/0606 29008KT P6SM OVC050
     FM050100 29005KT 3SM -RA BR BKN025 OVC050
     FM050400 30005KT 1SM -SN BR OVC008
     FM051200 33010KT 2SM -SN BR SCT008 OVC015
     FM051500 34010G16KT P6SM SCT020 BKN060
     FM051800 32009KT P6SM OVC100
      AMD NOT SKED=



000
FTUS41 KOKX 042000 AAA
TAFISP
TAF AMD
KISP 042030Z 0421/0518 22005KT 4SM -RA BR FEW015 SCT035 OVC100
      TEMPO 0422/0424 2SM -RA BR
     FM050000 25008KT 2SM -RA BR SCT008 BKN030
     FM050500 29008KT 1SM -RASN BR OVC008
     FM050800 32008KT 1/2SM SN FG VV007
     FM051300 34012G18KT 1SM -SN BR SCT008 OVC020
     FM051600 34012G18KT 2SM -SN BR BKN020 OVC060=



000
FTUS41 KOKX 042000 AAA
TAFLGA
TAF AMD
KLGA 042030Z 0421/0518 23008KT 4SM -RA BR FEW020 BKN100 OVC150
      TEMPO 0421/0424 2SM -RA BR
     FM050000 25008KT 2SM -RA BR SCT008 BKN030
     FM050400 28008KT 1SM -RASN BR OVC008
     FM050600 32008KT 1/2SM SN FG VV007
     FM051200 34012G18KT 1SM -SN BR SCT008 OVC020
     FM051500 34012G18KT 2SM -SN BR BKN020 OVC060
     FM051700 34012G18KT P6SM SCT020 OVC060 PROB30 0517/0518 2SM -SN
      BKN020 OVC060=



000
FTUS41 KOKX 042000 AAA
TAFBDR
TAF AMD
KBDR 042030Z 0421/0518 22007KT 3SM -RA BR SCT020 BKN050 OVC080
     FM050000 25006KT 2SM -RA BR SCT008 BKN035
     FM050400 28004KT 1SM -RASN BR OVC008
     FM050600 31007KT 1SM -SN BR VV009
     FM051300 34007KT 2SM -SN BR SCT010 BKN020
     FM051700 34012G18KT P6SM SCT020 OVC060 PROB30 0517/0518 2SM -SN
      BKN020 OVC060=



000
FTUS41 KOKX 042000 AAA
TAFEWR
TAF AMD
KEWR 042030Z 0421/0524 22007KT 4SM -RA BR FEW020 BKN100 OVC150
      TEMPO 0421/0423 2SM -RA BR
     FM042300 25008KT 2SM -RA BR SCT008 BKN030
     FM050400 28008KT 1SM -RASN BR OVC008
     FM050700 32008KT 1/2SM SN FG VV007
     FM051200 34012G18KT 1SM -SN BR SCT008 OVC020
     FM051500 34012G18KT 2SM -SN BR BKN020 OVC060
     FM051700 34012G18KT P6SM SCT020 OVC060 PROB30 0517/0520 2SM -SN
      BKN020 OVC060=



000
FTUS41 KOKX 042000 AAA
TAFSWF
TAF AMD
KSWF 042030Z 0421/0524 28008KT P6SM BKN030 OVC090
      TEMPO 0421/0424 4SM -RA BR
     FM050100 29005KT 3SM -RA BR BKN025 OVC050
     FM050400 30005KT 1SM -SN BR VV010
     FM051200 33009KT P6SM FEW020 BKN060
     FM051500 34010G16KT P6SM SCT020 BKN060
     FM051800 32009KT P6SM OVC100
      AMD NOT SKED=



000
FTUS41 KOKX 042000 AAA
TAFTEB
TAF AMD
KTEB 042030Z 0421/0518 25004KT 4SM -RA BR FEW020 OVC100
      TEMPO 0421/0423 2SM -RA BR
     FM042300 25008KT 2SM -RA BR SCT008 BKN030
     FM050400 28008KT 1SM -RASN BR OVC008
     FM050700 32008KT 1/2SM SN FG VV007
     FM051200 34012G18KT 1SM -SN BR SCT008 OVC020
     FM051500 34012G18KT 2SM -SN BR BKN020 OVC060
     FM051700 34012G18KT P6SM SCT020 OVC060 PROB30 0517/0518 2SM -SN
      BKN020 OVC060=



000
FTUS41 KOKX 042000 AAA
TAFGON
TAF AMD
KGON 042030Z 0421/0518 24008KT 4SM -RA BR FEW040 OVC090
     FM050100 26006KT 2SM -RA BR SCT008 BKN035
     FM050400 28004KT 1SM -RASN BR OVC008
     FM050600 31007KT 1SM -SN BR VV009
     FM051300 34007KT 2SM -SN BR SCT010 BKN020
     FM051700 34012G18KT P6SM SCT020 OVC060 PROB30 0517/0518 2SM -SN
      BKN020 OVC060=



000
FTUS41 KOKX 042000 AAA
TAFJFK
TAF AMD
KJFK 042030Z 0421/0524 23010KT 4SM -RA BR FEW020 BKN100 OVC150
      TEMPO 0421/0424 2SM -RA BR
     FM050000 25008KT 2SM -RA BR SCT008 BKN030
     FM050500 29008KT 1SM -RASN BR OVC008
     FM050700 32008KT 1/2SM SN FG VV007
     FM051300 34012G18KT 1SM -SN BR SCT008 OVC020
     FM051600 34012G18KT 2SM -SN BR BKN020 OVC060
     FM051800 34012G18KT P6SM SCT020 OVC060 PROB30 0518/0521 2SM -SN
      BKN020 OVC060=



000
FTUS41 KOKX 042000 AAA
TAFBDR
TAF AMD
KBDR 042030Z 0421/0518 22007KT 3SM -RA BR SCT020 BKN050 OVC080
     FM050000 25006KT 2SM -RA BR SCT008 BKN035
     FM050400 28004KT 1SM -RASN BR OVC008
     FM050600 31007KT 1SM -SN BR VV009
     FM051300 34007KT 2SM -SN BR SCT010 BKN020
     FM051700 34012G18KT P6SM SCT020 OVC060 PROB30 0517/0518 2SM -SN
      BKN020 OVC060=



000
FTUS41 KOKX 042000 AAA
TAFISP
TAF AMD
KISP 042030Z 0421/0518 22005KT 4SM -RA BR FEW015 SCT035 OVC100
      TEMPO 0422/0424 2SM -RA BR
     FM050000 25008KT 2SM -RA BR SCT008 BKN030
     FM050500 29008KT 1SM -RASN BR OVC008
     FM050800 32008KT 1/2SM SN FG VV007
     FM051300 34012G18KT 1SM -SN BR SCT008 OVC020
     FM051600 34012G18KT 2SM -SN BR BKN020 OVC060=



000
FTUS41 KOKX 042000 AAA
TAFLGA
TAF AMD
KLGA 042030Z 0421/0518 23008KT 4SM -RA BR FEW020 BKN100 OVC150
      TEMPO 0421/0424 2SM -RA BR
     FM050000 25008KT 2SM -RA BR SCT008 BKN030
     FM050400 28008KT 1SM -RASN BR OVC008
     FM050600 32008KT 1/2SM SN FG VV007
     FM051200 34012G18KT 1SM -SN BR SCT008 OVC020
     FM051500 34012G18KT 2SM -SN BR BKN020 OVC060
     FM051700 34012G18KT P6SM SCT020 OVC060 PROB30 0517/0518 2SM -SN
      BKN020 OVC060=



000
FTUS41 KOKX 042000 AAA
TAFSWF
TAF AMD
KSWF 042030Z 0421/0524 28008KT P6SM BKN030 OVC090
      TEMPO 0421/0424 4SM -RA BR
     FM050100 29005KT 3SM -RA BR BKN025 OVC050
     FM050400 30005KT 1SM -SN BR VV010
     FM051200 33009KT P6SM FEW020 BKN060
     FM051500 34010G16KT P6SM SCT020 BKN060
     FM051800 32009KT P6SM OVC100
      AMD NOT SKED=



000
FTUS41 KOKX 042000 AAA
TAFTEB
TAF AMD
KTEB 042030Z 0421/0518 25004KT 4SM -RA BR FEW020 OVC100
      TEMPO 0421/0423 2SM -RA BR
     FM042300 25008KT 2SM -RA BR SCT008 BKN030
     FM050400 28008KT 1SM -RASN BR OVC008
     FM050700 32008KT 1/2SM SN FG VV007
     FM051200 34012G18KT 1SM -SN BR SCT008 OVC020
     FM051500 34012G18KT 2SM -SN BR BKN020 OVC060
     FM051700 34012G18KT P6SM SCT020 OVC060 PROB30 0517/0518 2SM -SN
      BKN020 OVC060=



000
FTUS41 KOKX 042000 AAA
TAFEWR
TAF AMD
KEWR 042030Z 0421/0524 22007KT 4SM -RA BR FEW020 BKN100 OVC150
      TEMPO 0421/0423 2SM -RA BR
     FM042300 25008KT 2SM -RA BR SCT008 BKN030
     FM050400 28008KT 1SM -RASN BR OVC008
     FM050700 32008KT 1/2SM SN FG VV007
     FM051200 34012G18KT 1SM -SN BR SCT008 OVC020
     FM051500 34012G18KT 2SM -SN BR BKN020 OVC060
     FM051700 34012G18KT P6SM SCT020 OVC060 PROB30 0517/0520 2SM -SN
      BKN020 OVC060=



000
FTUS41 KOKX 042000 AAA
TAFGON
TAF AMD
KGON 042030Z 0421/0518 24008KT 4SM -RA BR FEW040 OVC090
     FM050100 26006KT 2SM -RA BR SCT008 BKN035
     FM050400 28004KT 1SM -RASN BR OVC008
     FM050600 31007KT 1SM -SN BR VV009
     FM051300 34007KT 2SM -SN BR SCT010 BKN020
     FM051700 34012G18KT P6SM SCT020 OVC060 PROB30 0517/0518 2SM -SN
      BKN020 OVC060=



000
FTUS41 KOKX 042000 AAA
TAFJFK
TAF AMD
KJFK 042030Z 0421/0524 23010KT 4SM -RA BR FEW020 BKN100 OVC150
      TEMPO 0421/0424 2SM -RA BR
     FM050000 25008KT 2SM -RA BR SCT008 BKN030
     FM050500 29008KT 1SM -RASN BR OVC008
     FM050700 32008KT 1/2SM SN FG VV007
     FM051300 34012G18KT 1SM -SN BR SCT008 OVC020
     FM051600 34012G18KT 2SM -SN BR BKN020 OVC060
     FM051800 34012G18KT P6SM SCT020 OVC060 PROB30 0518/0521 2SM -SN
      BKN020 OVC060=



000
FTUS41 KOKX 041700
TAFGON
TAF
KGON 041726Z 0418/0518 25008KT 5SM -RA BR FEW040 OVC090
     FM042200 25006KT 2SM -RA BR SCT008 BKN050
     FM050300 28004KT 1SM -RASN BR OVC008
     FM050500 31007KT 1SM -SN BR VV009
     FM051200 34007KT 2SM -SN BR SCT010 BKN020
     FM051700 34012G18KT P6SM SCT020 OVC060 PROB30 0517/0518 2SM -SN
      BKN020 OVC060=



000
FTUS41 KOKX 041700
TAFTEB
TAF
KTEB 041726Z 0418/0518 25004KT 4SM -RA BR FEW020 OVC100
     FM042200 25008KT 2SM -RA BR SCT008 BKN050
     FM050300 28008KT 1SM -RASN BR OVC008
     FM050500 32008KT 1/2SM SN FG VV007
     FM051100 34012G18KT 1SM -SN BR SCT008 OVC020
     FM051500 34012G18KT 2SM -SN BR BKN020 OVC060
     FM051700 34012G18KT P6SM SCT020 OVC060 PROB30 0517/0518 2SM -SN
      BKN020 OVC060=



000
FTUS41 KOKX 041700
TAFISP
TAF
KISP 041726Z 0418/0518 25006KT 3SM -RA BR FEW006 SCT035 OVC100
     FM042200 25008KT 2SM -RA BR SCT008 BKN050
     FM050400 29008KT 1SM -RASN BR OVC008
     FM050600 32008KT 1/2SM SN FG VV007
     FM051200 34012G18KT 1SM -SN BR SCT008 OVC020
     FM051600 34012G18KT 2SM -SN BR BKN020 OVC060=



000
FTUS41 KOKX 041700
TAFGON
TAF
KGON 041726Z 0418/0518 25008KT 5SM -RA BR FEW040 OVC090
     FM042200 25006KT 2SM -RA BR SCT008 BKN050
     FM050300 28004KT 1SM -RASN BR OVC008
     FM050500 31007KT 1SM -SN BR VV009
     FM051200 34007KT 2SM -SN BR SCT010 BKN020
     FM051700 34012G18KT P6SM SCT020 OVC060 PROB30 0517/0518 2SM -SN
      BKN020 OVC060=



000
FTUS41 KOKX 041700
TAFBDR
TAF
KBDR 041726Z 0418/0518 25007KT 3SM -RA BR SCT020 BKN050 OVC080
     FM042200 25006KT 2SM -RA BR SCT008 BKN050
     FM050300 28004KT 1SM -RASN BR OVC008
     FM050500 31007KT 1SM -SN BR VV009
     FM051200 34007KT 2SM -SN BR SCT010 BKN020
     FM051700 34012G18KT P6SM SCT020 OVC060 PROB30 0517/0518 2SM -SN
      BKN020 OVC060=



000
FTUS41 KOKX 041700
TAFBDR
TAF
KBDR 041726Z 0418/0518 25007KT 3SM -RA BR SCT020 BKN050 OVC080
     FM042200 25006KT 2SM -RA BR SCT008 BKN050
     FM050300 28004KT 1SM -RASN BR OVC008
     FM050500 31007KT 1SM -SN BR VV009
     FM051200 34007KT 2SM -SN BR SCT010 BKN020
     FM051700 34012G18KT P6SM SCT020 OVC060 PROB30 0517/0518 2SM -SN
      BKN020 OVC060=



000
FTUS41 KOKX 041700
TAFJFK
TAF
KJFK 041726Z 0418/0524 24011KT 4SM -RA BR FEW020 BKN100 OVC150
     FM042200 25008KT 2SM -RA BR SCT008 BKN050
     FM050400 29008KT 1SM -RASN BR OVC008
     FM050600 32008KT 1/2SM SN FG VV007
     FM051200 34012G18KT 1SM -SN BR SCT008 OVC020
     FM051600 34012G18KT 2SM -SN BR BKN020 OVC060
     FM051800 34012G18KT P6SM SCT020 OVC060 PROB30 0518/0521 2SM -SN
      BKN020 OVC060=



000
FTUS41 KOKX 041700
TAFEWR
TAF
KEWR 041726Z 0418/0524 22007KT 4SM -RA BR FEW020 BKN100 OVC150
     FM042200 25008KT 2SM -RA BR SCT008 BKN050
     FM050300 28008KT 1SM -RASN BR OVC008
     FM050500 32008KT 1/2SM SN FG VV007
     FM051100 34012G18KT 1SM -SN BR SCT008 OVC020
     FM051500 34012G18KT 2SM -SN BR BKN020 OVC060
     FM051700 34012G18KT P6SM SCT020 OVC060 PROB30 0517/0520 2SM -SN
      BKN020 OVC060=



000
FTUS41 KOKX 041700
TAFLGA
TAF
KLGA 041726Z 0418/0518 25008KT 4SM -RA BR FEW020 BKN100 OVC150
     FM042200 25008KT 2SM -RA BR SCT008 BKN050
     FM050300 28008KT 1SM -RASN BR OVC008
     FM050500 32008KT 1/2SM SN FG VV007
     FM051100 34012G18KT 1SM -SN BR SCT008 OVC020
     FM051500 34012G18KT 2SM -SN BR BKN020 OVC060
     FM051700 34012G18KT P6SM SCT020 OVC060 PROB30 0517/0518 2SM -SN
      BKN020 OVC060=



000
FTUS41 KOKX 041700
TAFTEB
TAF
KTEB 041726Z 0418/0518 25004KT 4SM -RA BR FEW020 OVC100
     FM042200 25008KT 2SM -RA BR SCT008 BKN050
     FM050300 28008KT 1SM -RASN BR OVC008
     FM050500 32008KT 1/2SM SN FG VV007
     FM051100 34012G18KT 1SM -SN BR SCT008 OVC020
     FM051500 34012G18KT 2SM -SN BR BKN020 OVC060
     FM051700 34012G18KT P6SM SCT020 OVC060 PROB30 0517/0518 2SM -SN
      BKN020 OVC060=



000
FTUS41 KOKX 041700
TAFLGA
TAF
KLGA 041726Z 0418/0518 25008KT 4SM -RA BR FEW020 BKN100 OVC150
     FM042200 25008KT 2SM -RA BR SCT008 BKN050
     FM050300 28008KT 1SM -RASN BR OVC008
     FM050500 32008KT 1/2SM SN FG VV007
     FM051100 34012G18KT 1SM -SN BR SCT008 OVC020
     FM051500 34012G18KT 2SM -SN BR BKN020 OVC060
     FM051700 34012G18KT P6SM SCT020 OVC060 PROB30 0517/0518 2SM -SN
      BKN020 OVC060=



000
FTUS41 KOKX 041700
TAFEWR
TAF
KEWR 041726Z 0418/0524 22007KT 4SM -RA BR FEW020 BKN100 OVC150
     FM042200 25008KT 2SM -RA BR SCT008 BKN050
     FM050300 28008KT 1SM -RASN BR OVC008
     FM050500 32008KT 1/2SM SN FG VV007
     FM051100 34012G18KT 1SM -SN BR SCT008 OVC020
     FM051500 34012G18KT 2SM -SN BR BKN020 OVC060
     FM051700 34012G18KT P6SM SCT020 OVC060 PROB30 0517/0520 2SM -SN
      BKN020 OVC060=



000
FTUS41 KOKX 041700
TAFJFK
TAF
KJFK 041726Z 0418/0524 24011KT 4SM -RA BR FEW020 BKN100 OVC150
     FM042200 25008KT 2SM -RA BR SCT008 BKN050
     FM050400 29008KT 1SM -RASN BR OVC008
     FM050600 32008KT 1/2SM SN FG VV007
     FM051200 34012G18KT 1SM -SN BR SCT008 OVC020
     FM051600 34012G18KT 2SM -SN BR BKN020 OVC060
     FM051800 34012G18KT P6SM SCT020 OVC060 PROB30 0518/0521 2SM -SN
      BKN020 OVC060=



000
FTUS41 KOKX 041700
TAFSWF
TAF
KSWF 041726Z 0418/0524 28008KT P6SM BKN030 OVC090
      TEMPO 0421/0424 3SM -RA BR
     FM050100 29005KT 3SM -RA BR BKN025 OVC050
     FM050300 30005KT 1SM -SN BR VV010
     FM051100 33009KT P6SM FEW020 BKN060
     FM051500 34010G16KT P6SM SCT020 BKN060
     FM051800 32009KT P6SM OVC100
      AMD NOT SKED=



000
FTUS41 KOKX 041700
TAFSWF
TAF
KSWF 041726Z 0418/0524 28008KT P6SM BKN030 OVC090
      TEMPO 0421/0424 3SM -RA BR
     FM050100 29005KT 3SM -RA BR BKN025 OVC050
     FM050300 30005KT 1SM -SN BR VV010
     FM051100 33009KT P6SM FEW020 BKN060
     FM051500 34010G16KT P6SM SCT020 BKN060
     FM051800 32009KT P6SM OVC100
      AMD NOT SKED=



000
FTUS41 KOKX 041700
TAFISP
TAF
KISP 041726Z 0418/0518 25006KT 3SM -RA BR FEW006 SCT035 OVC100
     FM042200 25008KT 2SM -RA BR SCT008 BKN050
     FM050400 29008KT 1SM -RASN BR OVC008
     FM050600 32008KT 1/2SM SN FG VV007
     FM051200 34012G18KT 1SM -SN BR SCT008 OVC020
     FM051600 34012G18KT 2SM -SN BR BKN020 OVC060=



000
FTUS41 KOKX 041400 AAA
TAFSWF
TAF AMD
KSWF 041433Z 0415/0518 25008KT 5SM -RA BR BKN030 OVC080
     FM041600 25010KT 5SM BR BKN020 BKN080
     FM050200 29005KT P6SM SCT020 OVC050
     FM050600 32005KT 2SM -SN BR BKN020
     FM051000 33009KT P6SM FEW020 BKN060
     FM051500 34010G16KT P6SM SCT020 BKN060
      AMD NOT SKED=



000
FTUS41 KOKX 041400 AAA
TAFGON
TAF AMD
KGON 041433Z 0415/0512 25008KT 4SM -RA BR BKN007 OVC090
      TEMPO 0415/0417 4SM -RA BR SCT007 OVC090
     FM041700 25010KT 5SM -RA BR BKN015 BKN050
     FM050300 27005KT 4SM -RA BR OVC010
     FM050600 33005KT 2SM -SN BR OVC010
     FM051000 34008KT 3SM -SN BR SCT010 OVC025=



000
FTUS41 KOKX 041400 AAA
TAFJFK
TAF AMD
KJFK 041433Z 0415/0518 24010KT 5SM -RA BR FEW020 OVC090
      TEMPO 0415/0419 2SM -RA BR BKN020 OVC080
     FM041900 25008KT 4SM -RA BR BKN020 BKN050
     FM050200 28008KT 4SM -RA BR OVC008
     FM050600 33008KT 2SM -SN BR OVC008
     FM051000 34010G17KT 1SM -SN BR SCT008 OVC020
     FM051600 34010KT 2SM -SN BKN020 OVC040=



000
FTUS41 KOKX 041400 AAA
TAFISP
TAF AMD
KISP 041433Z 0415/0512 25008KT 2SM -RA BR FEW020 OVC090
      TEMPO 0415/0419 BKN020
     FM041900 24010KT 5SM -RA BR BKN015 BKN050
     FM050200 27005KT 4SM -RA BR OVC008
     FM050600 33005KT 2SM -SN BR OVC008
     FM051000 34010G16KT 1SM -SN BR SCT008 OVC020=



000
FTUS41 KOKX 041400 AAA
TAFBDR
TAF AMD
KBDR 041433Z 0415/0512 26007KT 4SM -RA BR SCT020 OVC090
      TEMPO 0415/0419 BKN020
     FM041900 24010KT 5SM -RA BR BKN025 BKN050
     FM050200 27005KT 4SM -RA BR OVC015
     FM050600 33005KT 2SM -SN BR OVC015
     FM051000 34010G16KT 3SM -SN BR SCT020 OVC035=



000
FTUS41 KOKX 041400 AAA
TAFTEB
TAF AMD
KTEB 041433Z 0415/0512 23004KT 4SM -RA BR FEW020 OVC090
      TEMPO 0415/0419 2SM -RA BR BKN020
     FM041900 24005KT 4SM -RA BR BKN020 BKN050
     FM050200 28004KT 4SM -RA BR OVC008
     FM050600 33007KT 2SM -SN BR OVC008
     FM051000 35006KT 1SM -SN BR SCT008 OVC020=



000
FTUS41 KOKX 041400 AAA
TAFLGA
TAF AMD
KLGA 041433Z 0415/0512 22008KT 4SM -RA BR FEW020 OVC090
      TEMPO 0415/0419 2SM -RA BR BKN020 OVC080
     FM041900 25008KT 4SM -RA BR BKN020 BKN050
     FM050200 28008KT 4SM -RA BR OVC008
     FM050600 33008KT 2SM -SN BR OVC008
     FM051000 34012G18KT 1SM -SN BR SCT008 OVC020=



000
FTUS41 KOKX 041400 AAA
TAFEWR
TAF AMD
KEWR 041433Z 0415/0518 22007KT 4SM -RA BR FEW020 OVC090
      TEMPO 0415/0419 2SM -RA BR BKN020 OVC090
     FM041900 24007KT 4SM -RA BR BKN015 BKN050
     FM050200 28005KT 4SM -RA BR OVC008
     FM050600 33007KT 2SM -SN BR OVC008
     FM051000 34011G17KT 1SM -SN BR SCT008 OVC020
     FM051600 34010KT 2SM -SN BKN020 OVC040=



000
FTUS41 KOKX 041100 RRA
TAFSWF
TAF
KSWF 041149Z 0412/0518 25008KT 6SM -RA BR SCT030 BKN080
      TEMPO 0412/0416 5SM -RA BR BKN030
     FM041600 25010KT P6SM SCT020 BKN080
     FM050200 29005KT P6SM SCT020 OVC050
     FM050600 32005KT 2SM -SN BR BKN020
     FM051000 33009KT P6SM FEW020 BKN060
     FM051500 34010G16KT P6SM SCT020 BKN060
      AMD NOT SKED=



000
FTUS41 KOKX 041100
TAFGON
TAF
KGON 041137Z 0412/0512 25008KT 4SM -RA BR SCT015 OVC070
      TEMPO 0413/0417 4SM -RA BR BKN015
     FM041700 24010KT 5SM -RA BR BKN015 BKN050
     FM050300 27005KT 4SM -RA BR OVC010
     FM050600 33005KT 2SM -SN BR OVC010
     FM051000 34008KT 3SM -SN BR SCT010 OVC025=



000
FTUS41 KOKX 041100
TAFLGA
TAF
KLGA 041137Z 0412/0512 23008KT 6SM -RA BR BKN015
      TEMPO 0412/0416 5SM -RA BR SCT015 BKN060
     FM041600 24008KT 6SM -RA BR BKN015 BKN050
     FM050200 28008KT 4SM -RA BR OVC008
     FM050600 33008KT 2SM -SN BR OVC008
     FM051000 34012G18KT 1SM -SN BR SCT008 OVC020=



000
FTUS41 KOKX 041100
TAFJFK
TAF
KJFK 041137Z 0412/0518 25008KT 6SM -RA BR BKN020
      TEMPO 0412/0416 5SM -RA BR SCT020 BKN080
     FM041600 24008KT 6SM -RA BR BKN015 BKN050
     FM050200 28008KT 4SM -RA BR OVC008
     FM050600 33008KT 2SM -SN BR OVC008
     FM051000 34010G17KT 1SM -SN BR SCT008 OVC020
     FM051600 34010KT 2SM -SN BKN020 OVC040=



000
FTUS41 KOKX 041100
TAFTEB
TAF
KTEB 041137Z 0412/0512 23004KT 6SM -RA BR FEW020 BKN080
      TEMPO 0413/0417 5SM -RA BR BKN015
     FM041700 24005KT 5SM -RA BR BKN015 BKN050
     FM050200 28004KT 4SM -RA BR OVC008
     FM050600 33007KT 2SM -SN BR OVC008
     FM051000 35006KT 1SM -SN BR SCT008 OVC020=



000
FTUS41 KOKX 041100
TAFISP
TAF
KISP 041137Z 0412/0512 25008KT 6SM -RA BR SCT015 BKN025
      TEMPO 0413/0417 4SM -RA BR BKN015
     FM041700 24010KT 5SM -RA BR BKN015 BKN050
     FM050200 27005KT 4SM -RA BR OVC008
     FM050600 33005KT 2SM -SN BR OVC008
     FM051000 34010G16KT 1SM -SN BR SCT008 OVC020=



000
FTUS41 KOKX 041100
TAFBDR
TAF
KBDR 041137Z 0412/0512 26007KT 5SM -RA BR SCT020 BKN060
      TEMPO 0413/0417 4SM -RA BR BKN020
     FM041700 24010KT 5SM -RA BR BKN025 BKN050
     FM050200 27005KT 4SM -RA BR OVC015
     FM050600 33005KT 2SM -SN BR OVC015
     FM051000 34010G16KT 3SM -SN BR SCT020 OVC035=



000
FTUS41 KOKX 041100
TAFEWR
TAF
KEWR 041137Z 0412/0518 23007KT 6SM -RA BR BKN015
      TEMPO 0412/0416 5SM -RA BR SCT015 BKN070
     FM041600 24007KT 6SM -RA BR BKN015 BKN050
     FM050200 28005KT 4SM -RA BR OVC008
     FM050600 33007KT 2SM -SN BR OVC008
     FM051000 34011G17KT 1SM -SN BR SCT008 OVC020
     FM051600 34010KT 2SM -SN BKN020 OVC040=



000
FTUS41 KOKX 041100
TAFGON
TAF
KGON 041137Z 0412/0512 25008KT 4SM -RA BR SCT015 OVC070
      TEMPO 0413/0417 4SM -RA BR BKN015
     FM041700 24010KT 5SM -RA BR BKN015 BKN050
     FM050300 27005KT 4SM -RA BR OVC010
     FM050600 33005KT 2SM -SN BR OVC010
     FM051000 34008KT 3SM -SN BR SCT010 OVC025=



000
FTUS41 KOKX 041100
TAFJFK
TAF
KJFK 041137Z 0412/0518 25008KT 6SM -RA BR BKN020
      TEMPO 0412/0416 5SM -RA BR SCT020 BKN080
     FM041600 24008KT 6SM -RA BR BKN015 BKN050
     FM050200 28008KT 4SM -RA BR OVC008
     FM050600 33008KT 2SM -SN BR OVC008
     FM051000 34010G17KT 1SM -SN BR SCT008 OVC020
     FM051600 34010KT 2SM -SN BKN020 OVC040=



000
FTUS41 KOKX 041100
TAFLGA
TAF
KLGA 041137Z 0412/0512 23008KT 6SM -RA BR BKN015
      TEMPO 0412/0416 5SM -RA BR SCT015 BKN060
     FM041600 24008KT 6SM -RA BR BKN015 BKN050
     FM050200 28008KT 4SM -RA BR OVC008
     FM050600 33008KT 2SM -SN BR OVC008
     FM051000 34012G18KT 1SM -SN BR SCT008 OVC020=



000
FTUS41 KOKX 041100
TAFTEB
TAF
KTEB 041137Z 0412/0512 23004KT 6SM -RA BR FEW020 BKN080
      TEMPO 0413/0417 5SM -RA BR BKN015
     FM041700 24005KT 5SM -RA BR BKN015 BKN050
     FM050200 28004KT 4SM -RA BR OVC008
     FM050600 33007KT 2SM -SN BR OVC008
     FM051000 35006KT 1SM -SN BR SCT008 OVC020=



000
FTUS41 KOKX 041100
TAFBDR
TAF
KBDR 041137Z 0412/0512 26007KT 5SM -RA BR SCT020 BKN060
      TEMPO 0413/0417 4SM -RA BR BKN020
     FM041700 24010KT 5SM -RA BR BKN025 BKN050
     FM050200 27005KT 4SM -RA BR OVC015
     FM050600 33005KT 2SM -SN BR OVC015
     FM051000 34010G16KT 3SM -SN BR SCT020 OVC035=



000
FTUS41 KOKX 041100
TAFEWR
TAF
KEWR 041137Z 0412/0518 23007KT 6SM -RA BR BKN015
      TEMPO 0412/0416 5SM -RA BR SCT015 BKN070
     FM041600 24007KT 6SM -RA BR BKN015 BKN050
     FM050200 28005KT 4SM -RA BR OVC008
     FM050600 33007KT 2SM -SN BR OVC008
     FM051000 34011G17KT 1SM -SN BR SCT008 OVC020
     FM051600 34010KT 2SM -SN BKN020 OVC040=



000
FTUS41 KOKX 041100
TAFISP
TAF
KISP 041137Z 0412/0512 25008KT 6SM -RA BR SCT015 BKN025
      TEMPO 0413/0417 4SM -RA BR BKN015
     FM041700 24010KT 5SM -RA BR BKN015 BKN050
     FM050200 27005KT 4SM -RA BR OVC008
     FM050600 33005KT 2SM -SN BR OVC008
     FM051000 34010G16KT 1SM -SN BR SCT008 OVC020=



000
FTUS41 KOKX 041000 AAB
TAFGON
TAF AMD
KGON 041011Z 0410/0506 24012KT 6SM -RA BR OVC006 WS020/25050KT
      TEMPO 0410/0412 3SM -RA BR OVC005
     FM041200 26008KT 4SM BR OVC005
     FM041700 27008KT 5SM BR BKN015 BKN050
     FM050000 28005KT 4SM -RA BR OVC010=



000
FTUS41 KOKX 041000 AAB
TAFSWF
TAF AMD
KSWF 041011Z 0410/0512 25008KT 5SM -RA BR SCT008 BKN015
      TEMPO 0410/0412 6SM -RA BR
     FM041200 26007KT 5SM -RA BR BKN015
     FM041700 27010KT P6SM SCT015 BKN050
     FM050000 29005KT 6SM BR BKN020 OVC050
     FM050600 33005KT 2SM -SN BR OVC008
     FM051000 34009KT 1SM -SN BR OVC008
      AMD NOT SKED=



000
FTUS41 KOKX 041000 AAB
TAFGON
TAF AMD
KGON 041011Z 0410/0506 24012KT 6SM -RA BR OVC006 WS020/25050KT
      TEMPO 0410/0412 3SM -RA BR OVC005
     FM041200 26008KT 4SM BR OVC005
     FM041700 27008KT 5SM BR BKN015 BKN050
     FM050000 28005KT 4SM -RA BR OVC010=



000
FTUS41 KOKX 041000 AAB
TAFSWF
TAF AMD
KSWF 041011Z 0410/0512 25008KT 5SM -RA BR SCT008 BKN015
      TEMPO 0410/0412 6SM -RA BR
     FM041200 26007KT 5SM -RA BR BKN015
     FM041700 27010KT P6SM SCT015 BKN050
     FM050000 29005KT 6SM BR BKN020 OVC050
     FM050600 33005KT 2SM -SN BR OVC008
     FM051000 34009KT 1SM -SN BR OVC008
      AMD NOT SKED=



000
FTUS41 KOKX 040900 AAB
TAFISP
TAF AMD
KISP 040959Z 0410/0506 25010KT 6SM -RA BR OVC008 WS020/25050KT
      TEMPO 0410/0412 4SM -RA BR
     FM041200 26008KT 3SM -RA BR OVC005
     FM041700 25010KT 5SM -RA BR BKN010 BKN050
     FM050000 28005KT 4SM -RA BR OVC008=



000
FTUS41 KOKX 040900 AAB
TAFBDR
TAF AMD
KBDR 040959Z 0410/0506 24007KT 6SM -RA BR SCT025 OVC035
      WS020/25055KT
      TEMPO 0410/0412 5SM -RA BR BKN015
     FM041200 26007KT 3SM BR OVC010
     FM041700 27006KT 5SM BR BKN015 BKN050
     FM050000 28004KT 4SM -RA BR OVC010=



000
FTUS41 KOKX 040900 AAB
TAFISP
TAF AMD
KISP 040959Z 0410/0506 25010KT 6SM -RA BR OVC008 WS020/25050KT
      TEMPO 0410/0412 4SM -RA BR
     FM041200 26008KT 3SM -RA BR OVC005
     FM041700 25010KT 5SM -RA BR BKN010 BKN050
     FM050000 28005KT 4SM -RA BR OVC008=



000
FTUS41 KOKX 040900 AAB
TAFBDR
TAF AMD
KBDR 040959Z 0410/0506 24007KT 6SM -RA BR SCT025 OVC035
      WS020/25055KT
      TEMPO 0410/0412 5SM -RA BR BKN015
     FM041200 26007KT 3SM BR OVC010
     FM041700 27006KT 5SM BR BKN015 BKN050
     FM050000 28004KT 4SM -RA BR OVC010=



000
FTUS41 KOKX 040900 AAB
TAFJFK
TAF AMD
KJFK 040951Z 0410/0512 25009KT 6SM -RA BR OVC010
      TEMPO 0410/0413 4SM -RA BR OVC008
     FM041300 25008KT 4SM -RA BR OVC010
     FM041700 25008KT 5SM -RA BR BKN010 BKN050
     FM050000 28005KT 4SM -RA BR OVC008
     FM050600 33005KT 2SM -SN BR OVC008
     FM051000 34010G17KT 1SM -SN BR OVC008=



000
FTUS41 KOKX 040900 AAB
TAFTEB
TAF AMD
KTEB 040951Z 0410/0506 23004KT 6SM -RA BR OVC012
      TEMPO 0410/0413 3SM -RA BR OVC008
     FM041300 25007KT 3SM -RA BR OVC010
     FM041700 27006KT 5SM -RA BR BKN010 BKN050
     FM050000 28004KT 4SM -RA BR OVC008=



000
FTUS41 KOKX 040900 AAB
TAFLGA
TAF AMD
KLGA 040951Z 0410/0506 25008KT 6SM -RA BR OVC013
      TEMPO 0410/0413 4SM -RA BR OVC008
     FM041300 25008KT 4SM -RA BR OVC010
     FM041700 27007KT 5SM -RA BR BKN010 BKN050
     FM050000 28005KT 4SM -RA BR OVC008=



000
FTUS41 KOKX 040900 AAB
TAFEWR
TAF AMD
KEWR 040951Z 0410/0512 25007KT 6SM -RA BR OVC011
      TEMPO 0410/0413 4SM -RA BR OVC009
     FM041300 25007KT 4SM -RA BR OVC011
     FM041700 27008KT 5SM -RA BR BKN015 BKN050
     FM050000 28005KT 4SM -RA BR OVC008
     FM050600 33005KT 2SM -SN BR OVC008
     FM051000 34009G15KT 1SM -SN BR OVC008=



000
FTUS41 KOKX 040900 AAB
TAFJFK
TAF AMD
KJFK 040951Z 0410/0512 25009KT 6SM -RA BR OVC010
      TEMPO 0410/0413 4SM -RA BR OVC008
     FM041300 25008KT 4SM -RA BR OVC010
     FM041700 25008KT 5SM -RA BR BKN010 BKN050
     FM050000 28005KT 4SM -RA BR OVC008
     FM050600 33005KT 2SM -SN BR OVC008
     FM051000 34010G17KT 1SM -SN BR OVC008=



000
FTUS41 KOKX 040900 AAB
TAFEWR
TAF AMD
KEWR 040951Z 0410/0512 25007KT 6SM -RA BR OVC011
      TEMPO 0410/0413 4SM -RA BR OVC009
     FM041300 25007KT 4SM -RA BR OVC011
     FM041700 27008KT 5SM -RA BR BKN015 BKN050
     FM050000 28005KT 4SM -RA BR OVC008
     FM050600 33005KT 2SM -SN BR OVC008
     FM051000 34009G15KT 1SM -SN BR OVC008=



000
FTUS41 KOKX 040900 AAB
TAFTEB
TAF AMD
KTEB 040951Z 0410/0506 23004KT 6SM -RA BR OVC012
      TEMPO 0410/0413 3SM -RA BR OVC008
     FM041300 25007KT 3SM -RA BR OVC010
     FM041700 27006KT 5SM -RA BR BKN010 BKN050
     FM050000 28004KT 4SM -RA BR OVC008=



000
FTUS41 KOKX 040900 AAB
TAFLGA
TAF AMD
KLGA 040951Z 0410/0506 25008KT 6SM -RA BR OVC013
      TEMPO 0410/0413 4SM -RA BR OVC008
     FM041300 25008KT 4SM -RA BR OVC010
     FM041700 27007KT 5SM -RA BR BKN010 BKN050
     FM050000 28005KT 4SM -RA BR OVC008=



000
FTUS41 KOKX 040800 AAA
TAFSWF
TAF AMD
KSWF 040801Z 0408/0512 26009KT 6SM BR SCT006 OVC010 WS020/25045KT
     FM041000 26010KT 6SM BR BKN015
     FM041700 27010KT P6SM SCT015 BKN050
     FM050000 29005KT 6SM BR BKN020 OVC050
     FM050600 33005KT 2SM -SN BR OVC008
     FM051000 34009KT 1SM -SN BR OVC008
      AMD NOT SKED=



000
FTUS41 KOKX 040800 AAA
TAFSWF
TAF AMD
KSWF 040801Z 0408/0512 26009KT 6SM BR SCT006 OVC010 WS020/25045KT
     FM041000 26010KT 6SM BR BKN015
     FM041700 27010KT P6SM SCT015 BKN050
     FM050000 29005KT 6SM BR BKN020 OVC050
     FM050600 33005KT 2SM -SN BR OVC008
     FM051000 34009KT 1SM -SN BR OVC008
      AMD NOT SKED=



000
FTUS41 KOKX 040700 AAA
TAFJFK
TAF AMD
KJFK 040743Z 0408/0512 25012KT P6SM OVC007 WS020/25050KT
     FM041000 25009KT 5SM BR OVC007
      TEMPO 0411/0413 4SM -RA BR
     FM041700 25008KT 5SM -RA BR BKN010 BKN050
     FM050000 28005KT 4SM -RA BR OVC008
     FM050600 33005KT 2SM -SN BR OVC008
     FM051000 34010G17KT 1SM -SN BR OVC008=



000
FTUS41 KOKX 040700 AAA
TAFLGA
TAF AMD
KLGA 040743Z 0408/0506 24010G16KT P6SM OVC009 WS020/25050KT
     FM041000 25008KT 5SM BR OVC007
      TEMPO 0411/0413 3SM -RA BR
     FM041700 27007KT 5SM -RA BR BKN010 BKN050
     FM050000 28005KT 4SM -RA BR OVC008=



000
FTUS41 KOKX 040700 AAA
TAFGON
TAF AMD
KGON 040743Z 0408/0506 24006KT P6SM -RA BKN005 OVC015 WS020/25050KT
      TEMPO 0408/0411 3SM -RA BR
     FM041100 26008KT 4SM BR OVC005
     FM041700 27008KT 5SM BR BKN015 BKN050
     FM050000 28005KT 4SM -RA BR OVC010=



000
FTUS41 KOKX 040700 AAA
TAFTEB
TAF AMD
KTEB 040743Z 0408/0506 23005KT P6SM OVC010 WS020/25050KT
      TEMPO 0408/0410 6SM BR OVC007
     FM041000 25005KT 5SM BR OVC007
      TEMPO 0411/0413 3SM -RA BR
     FM041700 27006KT 5SM -RA BR BKN010 BKN050
     FM050000 28004KT 4SM -RA BR OVC008=



000
FTUS41 KOKX 040700 AAA
TAFBDR
TAF AMD
KBDR 040743Z 0408/0506 23006KT P6SM SCT005 OVC015 WS020/25055KT
      TEMPO 0408/0411 4SM -SHRA BR OVC008
     FM041100 26006KT 3SM BR OVC008
      TEMPO 0411/0413 2SM -RA BR
     FM041700 27006KT 5SM BR BKN015 BKN050
     FM050000 28004KT 4SM -RA BR OVC010=



000
FTUS41 KOKX 040700 AAA
TAFISP
TAF AMD
KISP 040743Z 0408/0506 24009KT P6SM OVC005 WS020/25055KT
      TEMPO 0408/0411 6SM BR OVC007
     FM041100 25008KT 3SM BR OVC005
      TEMPO 0412/0415 2SM -RA BR
     FM041700 25008KT 5SM -RA BR BKN010 BKN050
     FM050000 28005KT 4SM -RA BR OVC008=



000
FTUS41 KOKX 040700 AAA
TAFEWR
TAF AMD
KEWR 040743Z 0408/0512 24012G18KT P6SM OVC008 WS020/25050KT
     FM041000 25007KT 5SM BR OVC008
      TEMPO 0411/0413 3SM -RA BR
     FM041700 27008KT 5SM -RA BR BKN010 BKN050
     FM050000 28005KT 4SM -RA BR OVC008
     FM050600 33005KT 2SM -SN BR OVC008
     FM051000 34009G15KT 1SM -SN BR OVC008=



000
FTUS41 KOKX 040700 AAA
TAFTEB
TAF AMD
KTEB 040743Z 0408/0506 23005KT P6SM OVC010 WS020/25050KT
      TEMPO 0408/0410 6SM BR OVC007
     FM041000 25005KT 5SM BR OVC007
      TEMPO 0411/0413 3SM -RA BR
     FM041700 27006KT 5SM -RA BR BKN010 BKN050
     FM050000 28004KT 4SM -RA BR OVC008=



000
FTUS41 KOKX 040700 AAA
TAFEWR
TAF AMD
KEWR 040743Z 0408/0512 24012G18KT P6SM OVC008 WS020/25050KT
     FM041000 25007KT 5SM BR OVC008
      TEMPO 0411/0413 3SM -RA BR
     FM041700 27008KT 5SM -RA BR BKN010 BKN050
     FM050000 28005KT 4SM -RA BR OVC008
     FM050600 33005KT 2SM -SN BR OVC008
     FM051000 34009G15KT 1SM -SN BR OVC008=



000
FTUS41 KOKX 040700 AAA
TAFGON
TAF AMD
KGON 040743Z 0408/0506 24006KT P6SM -RA BKN005 OVC015 WS020/25050KT
      TEMPO 0408/0411 3SM -RA BR
     FM041100 26008KT 4SM BR OVC005
     FM041700 27008KT 5SM BR BKN015 BKN050
     FM050000 28005KT 4SM -RA BR OVC010=



000
FTUS41 KOKX 040700 AAA
TAFJFK
TAF AMD
KJFK 040743Z 0408/0512 25012KT P6SM OVC007 WS020/25050KT
     FM041000 25009KT 5SM BR OVC007
      TEMPO 0411/0413 4SM -RA BR
     FM041700 25008KT 5SM -RA BR BKN010 BKN050
     FM050000 28005KT 4SM -RA BR OVC008
     FM050600 33005KT 2SM -SN BR OVC008
     FM051000 34010G17KT 1SM -SN BR OVC008=



000
FTUS41 KOKX 040700 AAA
TAFLGA
TAF AMD
KLGA 040743Z 0408/0506 24010G16KT P6SM OVC009 WS020/25050KT
     FM041000 25008KT 5SM BR OVC007
      TEMPO 0411/0413 3SM -RA BR
     FM041700 27007KT 5SM -RA BR BKN010 BKN050
     FM050000 28005KT 4SM -RA BR OVC008=



000
FTUS41 KOKX 040700 AAA
TAFISP
TAF AMD
KISP 040743Z 0408/0506 24009KT P6SM OVC005 WS020/25055KT
      TEMPO 0408/0411 6SM BR OVC007
     FM041100 25008KT 3SM BR OVC005
      TEMPO 0412/0415 2SM -RA BR
     FM041700 25008KT 5SM -RA BR BKN010 BKN050
     FM050000 28005KT 4SM -RA BR OVC008=



000
FTUS41 KOKX 040700 AAA
TAFBDR
TAF AMD
KBDR 040743Z 0408/0506 23006KT P6SM SCT005 OVC015 WS020/25055KT
      TEMPO 0408/0411 4SM -SHRA BR OVC008
     FM041100 26006KT 3SM BR OVC008
      TEMPO 0411/0413 2SM -RA BR
     FM041700 27006KT 5SM BR BKN015 BKN050
     FM050000 28004KT 4SM -RA BR OVC010=



000
FTUS41 KOKX 040500 CCA
TAFTEB
TAF COR
KTEB 040552Z 0406/0506 23008KT 6SM BR OVC010 WS020/25050KT
      TEMPO 0406/0408 4SM BR OVC007
     FM040800 23005KT 4SM -RA BR OVC007 WS020/25050KT
     FM041100 25005KT 3SM BR OVC007
      TEMPO 0411/0413 2SM -RA BR
     FM041700 27006KT 5SM -RA BR BKN010 BKN050
     FM050000 28004KT 4SM -RA BR OVC008=



000
FTUS41 KOKX 040500 CCA
TAFJFK
TAF COR
KJFK 040552Z 0406/0512 21012KT P6SM OVC010 WS020/25050KT
      TEMPO 0406/0408 5SM BR OVC007
     FM040800 23010KT 5SM -RA BR OVC007 WS020/25050KT
     FM041100 24009KT 3SM BR OVC007
      TEMPO 0411/0413 2SM -RA BR
     FM041700 25008KT 5SM -RA BR BKN010 BKN050
     FM050000 28005KT 4SM -RA BR OVC008
     FM050600 33005KT 2SM -SN BR OVC008
     FM051000 34010G17KT 1SM -SN BR OVC008=



000
FTUS41 KOKX 040500 CCA
TAFLGA
TAF COR
KLGA 040552Z 0406/0506 22009G15KT P6SM BKN009 OVC015 WS020/25050KT
      TEMPO 0406/0408 5SM BR OVC012
     FM040800 23010KT 5SM -RA BR OVC007 WS020/25050KT
     FM041100 25008KT 3SM BR OVC007
      TEMPO 0411/0413 2SM -RA BR
     FM041700 27007KT 5SM -RA BR BKN010 BKN050
     FM050000 28005KT 4SM -RA BR OVC008=



000
FTUS41 KOKX 040500 CCA
TAFEWR
TAF COR
KEWR 040552Z 0406/0512 22012G18KT P6SM BKN007 OVC015 WS020/25050KT
      TEMPO 0406/0408 4SM BR OVC012
     FM040800 23010KT 4SM -RA BR OVC007 WS020/25050KT
     FM041100 25007KT 3SM BR OVC007
      TEMPO 0411/0413 2SM -RA BR
     FM041700 27008KT 5SM -RA BR BKN010 BKN050
     FM050000 28005KT 4SM -RA BR OVC008
     FM050600 33005KT 2SM -SN BR OVC008
     FM051000 34009G15KT 1SM -SN BR OVC008=



000
FTUS41 KOKX 040500 CCA
TAFTEB
TAF COR
KTEB 040552Z 0406/0506 23008KT 6SM BR OVC010 WS020/25050KT
      TEMPO 0406/0408 4SM BR OVC007
     FM040800 23005KT 4SM -RA BR OVC007 WS020/25050KT
     FM041100 25005KT 3SM BR OVC007
      TEMPO 0411/0413 2SM -RA BR
     FM041700 27006KT 5SM -RA BR BKN010 BKN050
     FM050000 28004KT 4SM -RA BR OVC008=



000
FTUS41 KOKX 040500 CCA
TAFLGA
TAF COR
KLGA 040552Z 0406/0506 22009G15KT P6SM BKN009 OVC015 WS020/25050KT
      TEMPO 0406/0408 5SM BR OVC012
     FM040800 23010KT 5SM -RA BR OVC007 WS020/25050KT
     FM041100 25008KT 3SM BR OVC007
      TEMPO 0411/0413 2SM -RA BR
     FM041700 27007KT 5SM -RA BR BKN010 BKN050
     FM050000 28005KT 4SM -RA BR OVC008=



000
FTUS41 KOKX 040500 CCA
TAFJFK
TAF COR
KJFK 040552Z 0406/0512 21012KT P6SM OVC010 WS020/25050KT
      TEMPO 0406/0408 5SM BR OVC007
     FM040800 23010KT 5SM -RA BR OVC007 WS020/25050KT
     FM041100 24009KT 3SM BR OVC007
      TEMPO 0411/0413 2SM -RA BR
     FM041700 25008KT 5SM -RA BR BKN010 BKN050
     FM050000 28005KT 4SM -RA BR OVC008
     FM050600 33005KT 2SM -SN BR OVC008
     FM051000 34010G17KT 1SM -SN BR OVC008=



000
FTUS41 KOKX 040500 CCA
TAFEWR
TAF COR
KEWR 040552Z 0406/0512 22012G18KT P6SM BKN007 OVC015 WS020/25050KT
      TEMPO 0406/0408 4SM BR OVC012
     FM040800 23010KT 4SM -RA BR OVC007 WS020/25050KT
     FM041100 25007KT 3SM BR OVC007
      TEMPO 0411/0413 2SM -RA BR
     FM041700 27008KT 5SM -RA BR BKN010 BKN050
     FM050000 28005KT 4SM -RA BR OVC008
     FM050600 33005KT 2SM -SN BR OVC008
     FM051000 34009G15KT 1SM -SN BR OVC008=



000
FTUS41 KOKX 040500 RRA
TAFSWF
TAF
KSWF 040551Z 0406/0512 25009KT 4SM -FZRA BR SCT006 OVC010
      WS020/25045KT
     FM041000 25010KT 4SM BR SCT010 BKN020
     FM041700 27010KT P6SM SCT012 BKN050
     FM050000 29005KT 6SM BR BKN020 OVC050
     FM050600 33005KT 2SM -SN BR OVC008
     FM051000 34009KT 1SM -SN BR OVC008
      AMD NOT SKED=



000
FTUS41 KOKX 040500 RRA
TAFGON
TAF
KGON 040551Z 0406/0506 20005KT 2SM -FZRA BR OVC005 WS020/25050KT
     FM040700 22006KT 3SM -RA BR BKN005 OVC015 WS020/25050KT
     FM041100 26008KT 3SM BR OVC005
      TEMPO 0411/0413 2SM -RA BR
     FM041700 27008KT 5SM BR BKN015 BKN050
     FM050000 28005KT 4SM -RA BR OVC010=



000
FTUS41 KOKX 040500 RRA
TAFSWF
TAF
KSWF 040551Z 0406/0512 25009KT 4SM -FZRA BR SCT006 OVC010
      WS020/25045KT
     FM041000 25010KT 4SM BR SCT010 BKN020
     FM041700 27010KT P6SM SCT012 BKN050
     FM050000 29005KT 6SM BR BKN020 OVC050
     FM050600 33005KT 2SM -SN BR OVC008
     FM051000 34009KT 1SM -SN BR OVC008
      AMD NOT SKED=



000
FTUS41 KOKX 040500 RRA
TAFGON
TAF
KGON 040551Z 0406/0506 20005KT 2SM -FZRA BR OVC005 WS020/25050KT
     FM040700 22006KT 3SM -RA BR BKN005 OVC015 WS020/25050KT
     FM041100 26008KT 3SM BR OVC005
      TEMPO 0411/0413 2SM -RA BR
     FM041700 27008KT 5SM BR BKN015 BKN050
     FM050000 28005KT 4SM -RA BR OVC010=



000
FTUS41 KOKX 040500 RRA
TAFBDR
TAF
KBDR 040548Z 0406/0506 23006KT 4SM BR SCT005 OVC015 WS020/25055KT
      TEMPO 0406/0408 6SM BR OVC008
     FM040900 25005KT 4SM -RA BR OVC005 WS020/25055KT
     FM041100 26006KT 3SM BR OVC005
      TEMPO 0411/0413 2SM -RA BR
     FM041700 27006KT 5SM BR BKN015 BKN050
     FM050000 28004KT 4SM -RA BR OVC010=



000
FTUS41 KOKX 040500 RRA
TAFISP
TAF
KISP 040548Z 0406/0506 23007KT 4SM BR BKN003 OVC010 WS020/25055KT
      TEMPO 0406/0409 6SM BR OVC007
     FM040900 23007KT 4SM -RA BR OVC005 WS020/25055KT
     FM041100 25008KT 3SM BR OVC005
      TEMPO 0411/0413 2SM -RA BR
     FM041700 25008KT 5SM -RA BR BKN010 BKN050
     FM050000 28005KT 4SM -RA BR OVC008=



000
FTUS41 KOKX 040500 RRA
TAFISP
TAF
KISP 040548Z 0406/0506 23007KT 4SM BR BKN003 OVC010 WS020/25055KT
      TEMPO 0406/0409 6SM BR OVC007
     FM040900 23007KT 4SM -RA BR OVC005 WS020/25055KT
     FM041100 25008KT 3SM BR OVC005
      TEMPO 0411/0413 2SM -RA BR
     FM041700 25008KT 5SM -RA BR BKN010 BKN050
     FM050000 28005KT 4SM -RA BR OVC008=



000
FTUS41 KOKX 040500 RRA
TAFBDR
TAF
KBDR 040548Z 0406/0506 23006KT 4SM BR SCT005 OVC015 WS020/25055KT
      TEMPO 0406/0408 6SM BR OVC008
     FM040900 25005KT 4SM -RA BR OVC005 WS020/25055KT
     FM041100 26006KT 3SM BR OVC005
      TEMPO 0411/0413 2SM -RA BR
     FM041700 27006KT 5SM BR BKN015 BKN050
     FM050000 28004KT 4SM -RA BR OVC010=



000
FTUS41 KOKX 040500 RRA
TAFTEB
TAF
KTEB 040541Z 0406/0506 23008KT 6SM BR OVC010 WS020/25050KT
      TEMPO 0406/0408 4SM BR OVC007
     FM040800 23005KT 4SM -RA BR OVC007
     FM041100 25005KT 3SM BR OVC007
      TEMPO 0411/0413 2SM -RA BR
     FM041700 27006KT 5SM -RA BR BKN010 BKN050
     FM050000 28004KT 4SM -RA BR OVC008=



000
FTUS41 KOKX 040500 RRA
TAFTEB
TAF
KTEB 040541Z 0406/0506 23008KT 6SM BR OVC010 WS020/25050KT
      TEMPO 0406/0408 4SM BR OVC007
     FM040800 23005KT 4SM -RA BR OVC007
     FM041100 25005KT 3SM BR OVC007
      TEMPO 0411/0413 2SM -RA BR
     FM041700 27006KT 5SM -RA BR BKN010 BKN050
     FM050000 28004KT 4SM -RA BR OVC008=



000
FTUS41 KOKX 040500
TAFLGA
TAF
KLGA 040536Z 0406/0506 22009G15KT P6SM BKN009 OVC015 WS020/25050KT
      TEMPO 0406/0408 5SM BR OVC012
     FM040800 23010KT 5SM -RA BR OVC007
     FM041100 25008KT 3SM BR OVC007
      TEMPO 0411/0413 2SM -RA BR
     FM041700 27007KT 5SM -RA BR BKN010 BKN050
     FM050000 28005KT 4SM -RA BR OVC008=



000
FTUS41 KOKX 040500
TAFJFK
TAF
KJFK 040536Z 0406/0512 21012KT P6SM OVC010 WS020/25050KT
      TEMPO 0406/0408 5SM BR OVC007
     FM040800 23010KT 5SM -RA BR OVC007
     FM041100 24009KT 3SM BR OVC007
      TEMPO 0411/0413 2SM -RA BR
     FM041700 25008KT 5SM -RA BR BKN010 BKN050
     FM050000 28005KT 4SM -RA BR OVC008
     FM050600 33005KT 2SM -SN BR OVC008
     FM051000 34010G17KT 1SM -SN BR OVC008=



000
FTUS41 KOKX 040500
TAFEWR
TAF
KEWR 040536Z 0406/0512 22012G18KT P6SM BKN007 OVC015 WS020/25050KT
      TEMPO 0406/0408 4SM BR OVC012
     FM040800 23010KT 4SM -RA BR OVC007
     FM041100 25007KT 3SM BR OVC007
      TEMPO 0411/0413 2SM -RA BR
     FM041700 27008KT 5SM -RA BR BKN010 BKN050
     FM050000 28005KT 4SM -RA BR OVC008
     FM050600 33005KT 2SM -SN BR OVC008
     FM051000 34009G15KT 1SM -SN BR OVC008=



000
FTUS41 KOKX 040500
TAFLGA
TAF
KLGA 040536Z 0406/0506 22009G15KT P6SM BKN009 OVC015 WS020/25050KT
      TEMPO 0406/0408 5SM BR OVC012
     FM040800 23010KT 5SM -RA BR OVC007
     FM041100 25008KT 3SM BR OVC007
      TEMPO 0411/0413 2SM -RA BR
     FM041700 27007KT 5SM -RA BR BKN010 BKN050
     FM050000 28005KT 4SM -RA BR OVC008=



000
FTUS41 KOKX 040500
TAFEWR
TAF
KEWR 040536Z 0406/0512 22012G18KT P6SM BKN007 OVC015 WS020/25050KT
      TEMPO 0406/0408 4SM BR OVC012
     FM040800 23010KT 4SM -RA BR OVC007
     FM041100 25007KT 3SM BR OVC007
      TEMPO 0411/0413 2SM -RA BR
     FM041700 27008KT 5SM -RA BR BKN010 BKN050
     FM050000 28005KT 4SM -RA BR OVC008
     FM050600 33005KT 2SM -SN BR OVC008
     FM051000 34009G15KT 1SM -SN BR OVC008=



000
FTUS41 KOKX 040500
TAFJFK
TAF
KJFK 040536Z 0406/0512 21012KT P6SM OVC010 WS020/25050KT
      TEMPO 0406/0408 5SM BR OVC007
     FM040800 23010KT 5SM -RA BR OVC007
     FM041100 24009KT 3SM BR OVC007
      TEMPO 0411/0413 2SM -RA BR
     FM041700 25008KT 5SM -RA BR BKN010 BKN050
     FM050000 28005KT 4SM -RA BR OVC008
     FM050600 33005KT 2SM -SN BR OVC008
     FM051000 34010G17KT 1SM -SN BR OVC008=



000
FTUS41 KOKX 040200 AAA
TAFSWF
TAF AMD
KSWF 040216Z 0402/0506 20008KT 2SM FZRA OVC010
     FM040700 24007KT 1SM BR OVC005 WS020/25045KT
     FM041200 27007KT 6SM BR SCT010 OVC040
     FM041700 27007KT P6SM SCT020 BKN050
     FM050000 29005KT 6SM BR BKN020 OVC050
      AMD NOT SKED=



000
FTUS41 KOKX 040200 AAB
TAFISP
TAF AMD
KISP 040216Z 0402/0424 20010KT 2SM RA BKN004 OVC012
     FM040600 24008KT 3SM -SHRA BR OVC004 WS020/25050KT
     FM041100 26008KT 3SM -RA BR OVC008
     FM041700 26008KT 5SM -RA BR BKN008 BKN050=



000
FTUS41 KOKX 040200 AAB
TAFBDR
TAF AMD
KBDR 040216Z 0402/0424 17007KT 3SM FZRA SCT006 OVC012
     FM040500 21007KT 3SM RA BR BKN005 OVC010
     FM040600 24007KT 3SM -SHRA BR OVC004 WS020/25050KT
     FM041100 27006KT 3SM -RA BR OVC008
     FM041700 27006KT 5SM -RA BR BKN008 BKN050=



000
FTUS41 KOKX 040200 AAB
TAFLGA
TAF AMD
KLGA 040216Z 0402/0424 18010KT 4SM RA SCT005 OVC015
     FM040600 24009KT 3SM -SHRA BR BKN005 OVC010 WS020/25050KT
     FM041100 27006KT 3SM -RA BR OVC008
     FM041700 27006KT 5SM -RA BR BKN008 BKN050=



000
FTUS41 KOKX 040200 AAB
TAFEWR
TAF AMD
KEWR 040216Z 0402/0506 18010KT 3SM RA SCT005 OVC010
     FM040600 24007KT 3SM -SHRA BR BKN004 OVC010 WS020/25050KT
     FM041100 27007KT 3SM -RA BR OVC008
     FM041700 27007KT 5SM -RA BR BKN008 BKN050
     FM050000 27005KT 4SM -RA BR OVC008=



000
FTUS41 KOKX 040200 AAB
TAFJFK
TAF AMD
KJFK 040216Z 0402/0506 19011KT 4SM RA FEW005 OVC010
     FM040600 24011KT 3SM -SHRA BR BKN004 OVC010 WS020/25050KT
     FM041100 26009KT 3SM -RA BR OVC008
     FM041700 26008KT 5SM -RA BR BKN008 BKN050
     FM050000 27005KT 4SM -RA BR OVC008=



000
FTUS41 KOKX 040200 AAB
TAFTEB
TAF AMD
KTEB 040216Z 0402/0424 18010KT 3SM RA SCT005 OVC012
     FM040600 23008KT 3SM -SHRA BR BKN005 OVC010 WS020/25050KT
     FM041100 26005KT 3SM -RA BR OVC008
     FM041700 27005KT 5SM -RA BR BKN008 BKN050=



000
FTUS41 KOKX 040200 AAB
TAFGON
TAF AMD
KGON 040216Z 0402/0424 18011KT 2SM -PLSN BKN004 OVC010
     FM040400 19010KT 1SM RA BKN004 OVC010
     FM040700 23010KT 3SM -SHRA BR OVC004 WS020/25055KT
     FM041200 26007KT 3SM -RA BR OVC006
     FM041700 26007KT 5SM -RA BR BKN008 BKN050=



000
FTUS41 KOKX 040100 AAA
TAFGON
TAF AMD
KGON 040104Z 0401/0424 17011KT 1SM -SN BR BKN005 OVC010
     FM040200 17011KT 2SM -FZRAPLSN BKN004 OVC010
     FM040300 20010KT 1SM RA OVC004
     FM040700 23010KT 3SM -SHRA BR OVC004 WS020/25055KT
     FM041200 26007KT 3SM -RA BR OVC006
     FM041700 26007KT 5SM -RA BR BKN008 BKN050=



000
FTUS41 KOKX 040100 AAA
TAFBDR
TAF AMD
KBDR 040103Z 0401/0424 16007KT 2SM -PLSN BR SCT006 OVC012
     FM040200 17007KT 2SM FZRA BKN006 OVC010
     FM040400 21007KT 2SM RA BR OVC004
     FM040600 24007KT 3SM -SHRA BR OVC004 WS020/25050KT
     FM041100 27006KT 3SM -RA BR OVC008
     FM041700 27006KT 5SM -RA BR BKN008 BKN050=



000
FTUS41 KOKX 040100 AAA
TAFISP
TAF AMD
KISP 040102Z 0401/0424 19010KT 2SM RA OVC004
     FM040600 24008KT 3SM -SHRA BR OVC004 WS020/25050KT
     FM041100 26008KT 3SM -RA BR OVC008
     FM041700 26008KT 5SM -RA BR BKN008 BKN050=



000
FTUS41 KOKX 040100 AAA
TAFISP
TAF AMD
KISP 040102Z 0401/0424 19010KT 2SM RA OVC004
     FM040600 24008KT 3SM -SHRA BR OVC004 WS020/25050KT
     FM041100 26008KT 3SM -RA BR OVC008
     FM041700 26008KT 5SM -RA BR BKN008 BKN050=



000
FTUS41 KOKX 040000 AAA
TAFTEB
TAF AMD
KTEB 040057Z 0401/0424 18009KT 2SM -FZRAPL SCT005 OVC015
     FM040300 19007KT 3SM RA SCT005 OVC010
     FM040600 23007KT 3SM -SHRA BR OVC004 WS020/25050KT
     FM041100 26005KT 3SM -RA BR OVC008
     FM041700 27005KT 5SM -RA BR BKN008 BKN050=



000
FTUS41 KOKX 040000 AAA
TAFTEB
TAF AMD
KTEB 040057Z 0401/0424 18009KT 2SM -FZRAPL SCT005 OVC015
     FM040300 19007KT 3SM RA SCT005 OVC010
     FM040600 23007KT 3SM -SHRA BR OVC004 WS020/25050KT
     FM041100 26005KT 3SM -RA BR OVC008
     FM041700 27005KT 5SM -RA BR BKN008 BKN050=



000
FTUS41 KOKX 040000 AAA
TAFLGA
TAF AMD
KLGA 040055Z 0401/0424 18010KT 3SM -FZRAPLSN SCT004 OVC009
     FM040200 19011KT 3SM RA OVC004
     FM040600 24009KT 3SM -SHRA BR OVC004 WS020/25050KT
     FM041100 27006KT 3SM -RA BR OVC008
     FM041700 27006KT 5SM -RA BR BKN008 BKN050=



000
FTUS41 KOKX 040000 AAA
TAFLGA
TAF AMD
KLGA 040055Z 0401/0424 18010KT 3SM -FZRAPLSN SCT004 OVC009
     FM040200 19011KT 3SM RA OVC004
     FM040600 24009KT 3SM -SHRA BR OVC004 WS020/25050KT
     FM041100 27006KT 3SM -RA BR OVC008
     FM041700 27006KT 5SM -RA BR BKN008 BKN050=



000
FTUS41 KOKX 040000 AAA
TAFEWR
TAF AMD
KEWR 040054Z 0401/0506 16009KT 3SM -FZRA SCT005 OVC020
     FM040200 19013KT 2SM RA BKN005 OVC020
     FM040600 25007KT 3SM -SHRA BR OVC004 WS020/25050KT
     FM041100 27007KT 3SM -RA BR OVC008
     FM041700 27007KT 5SM -RA BR BKN008 BKN050
     FM050000 27005KT 4SM -RA BR OVC008=



000
FTUS41 KOKX 040000 AAA
TAFJFK
TAF AMD
KJFK 040054Z 0401/0506 18013KT 3SM RA FEW004 OVC008
     FM040600 24012KT 3SM -SHRA BR OVC004 WS020/25050KT
     FM041100 26009KT 3SM -RA BR OVC008
     FM041700 26008KT 5SM -RA BR BKN008 BKN050
     FM050000 27005KT 4SM -RA BR OVC008=



000
FTUS41 KOKX 040000 AAA
TAFJFK
TAF AMD
KJFK 040054Z 0401/0506 18013KT 3SM RA FEW004 OVC008
     FM040600 24012KT 3SM -SHRA BR OVC004 WS020/25050KT
     FM041100 26009KT 3SM -RA BR OVC008
     FM041700 26008KT 5SM -RA BR BKN008 BKN050
     FM050000 27005KT 4SM -RA BR OVC008=



000
FTUS41 KOKX 040000 AAA
TAFEWR
TAF AMD
KEWR 040054Z 0401/0506 16009KT 3SM -FZRA SCT005 OVC020
     FM040200 19013KT 2SM RA BKN005 OVC020
     FM040600 25007KT 3SM -SHRA BR OVC004 WS020/25050KT
     FM041100 27007KT 3SM -RA BR OVC008
     FM041700 27007KT 5SM -RA BR BKN008 BKN050
     FM050000 27005KT 4SM -RA BR OVC008=



000
FTUS41 KOKX 032300
TAFEWR
TAF
KEWR 032328Z 0400/0506 17009KT 2SM -FZRAPLSN SCT005 OVC015
     FM040100 19013KT 2SM RA OVC004
     FM040600 25007KT 3SM -SHRA BR OVC004 WS020/25050KT
     FM041100 27007KT 3SM -RA BR OVC008
     FM041700 27007KT 5SM -RA BR BKN008 BKN050
     FM050000 27005KT 4SM -RA BR OVC008=



000
FTUS41 KOKX 032300
TAFLGA
TAF
KLGA 032328Z 0400/0424 18010KT 2SM -FZRAPLSN BKN005 OVC010
     FM040100 19011KT 2SM RA OVC004
     FM040600 24009KT 3SM -SHRA BR OVC004 WS020/25050KT
     FM041100 27006KT 3SM -RA BR OVC008
     FM041700 27006KT 5SM -RA BR BKN008 BKN050=



000
FTUS41 KOKX 032300
TAFJFK
TAF
KJFK 032328Z 0400/0506 17010KT 2SM -FZRAPLSN BKN004 OVC010
     FM040100 18013KT 2SM RA OVC004
     FM040600 24012KT 3SM -SHRA BR OVC004 WS020/25050KT
     FM041100 26009KT 3SM -RA BR OVC008
     FM041700 26008KT 5SM -RA BR BKN008 BKN050
     FM050000 27005KT 4SM -RA BR OVC008=



000
FTUS41 KOKX 032300
TAFSWF
TAF
KSWF 032328Z 0400/0506 17009KT 2SM -PLSN FEW004 OVC008
     FM040200 21008KT 2SM FZRA OVC008
     FM040700 24007KT 1SM BR OVC004 WS020/25045KT
     FM041200 27007KT 6SM BR SCT010 OVC040
     FM041700 27007KT P6SM SCT020 BKN050
     FM050000 29005KT 6SM BR BKN020 OVC050
      AMD NOT SKED=



000
FTUS41 KOKX 032300
TAFGON
TAF
KGON 032328Z 0400/0424 19010KT 1SM -SN BR BKN010 OVC020
     FM040200 19011KT 2SM -FZRAPLSN SCT004 OVC010
     FM040300 21010KT 1SM RA OVC004
     FM040700 23010KT 3SM -SHRA BR OVC004 WS020/25055KT
     FM041200 26007KT 3SM -RA BR OVC006
     FM041700 26007KT 5SM -RA BR BKN008 BKN050=



000
FTUS41 KOKX 032300
TAFISP
TAF
KISP 032328Z 0400/0424 17008KT 1SM -SN BR SCT006 OVC012
      TEMPO 0400/0401 BKN006
     FM040100 17009KT 2SM -FZRAPLSN SCT004 OVC010
     FM040200 19011KT 2SM RA OVC004
     FM040600 24009KT 3SM -SHRA BR OVC004 WS020/25050KT
     FM041100 26008KT 3SM -RA BR OVC008
     FM041700 26008KT 5SM -RA BR BKN008 BKN050=



000
FTUS41 KOKX 032300
TAFTEB
TAF
KTEB 032328Z 0400/0424 18009KT 2SM -FZRAPLSN SCT004 OVC010
     FM040100 19007KT 2SM RA OVC004
     FM040600 23007KT 3SM -SHRA BR OVC004 WS020/25050KT
     FM041100 26005KT 3SM -RA BR OVC008
     FM041700 27005KT 5SM -RA BR BKN008 BKN050=



000
FTUS41 KOKX 032300
TAFBDR
TAF
KBDR 032328Z 0400/0424 16008KT 1SM -PLSN BR SCT006 OVC010
     FM040200 18009KT 2SM FZRA OVC004
     FM040400 21008KT 2SM RA BR OVC004
     FM040600 24008KT 3SM -SHRA BR OVC004 WS020/25050KT
     FM041100 27006KT 3SM -RA BR OVC008
     FM041700 27006KT 5SM -RA BR BKN008 BKN050=



000
FTUS41 KOKX 032200 AAB
TAFGON
TAF AMD
KGON 032253Z 0323/0418 19011KT 2SM -SN SCT010 OVC020
      TEMPO 0323/0402 1SM -SN BKN010
     FM040200 20012KT 2SM -PLSN OVC009
     FM040300 23010KT 1SM RA OVC004
     FM040700 25007KT 1SM -SHRA BR OVC004 WS020/25055KT
     FM041200 26007KT 3SM -SHRA BR OVC005=



000
FTUS41 KOKX 032200 AAB
TAFGON
TAF AMD
KGON 032253Z 0323/0418 19011KT 2SM -SN SCT010 OVC020
      TEMPO 0323/0402 1SM -SN BKN010
     FM040200 20012KT 2SM -PLSN OVC009
     FM040300 23010KT 1SM RA OVC004
     FM040700 25007KT 1SM -SHRA BR OVC004 WS020/25055KT
     FM041200 26007KT 3SM -SHRA BR OVC005=



000
FTUS41 KOKX 032200 AAD
TAFEWR
TAF AMD
KEWR 032251Z 0323/0424 17010KT 2SM -PLSN OVC015
     FM040100 19009KT 1SM RA OVC006
     FM040600 25007KT 1SM -SHRA OVC004 WS020/25050KT
     FM041100 27007KT 3SM -RA BR OVC007=



000
FTUS41 KOKX 032200 AAD
TAFJFK
TAF AMD
KJFK 032250Z 0323/0424 17012KT 2SM -PLSN BKN006 OVC015
     FM040100 19014KT 1SM RA OVC004
     FM040600 24012KT 4SM -SHRA BR OVC004 WS020/25050KT
     FM041100 26009KT 3SM -RA BR OVC008=



000
FTUS41 KOKX 032200 AAD
TAFJFK
TAF AMD
KJFK 032250Z 0323/0424 17012KT 2SM -PLSN BKN006 OVC015
     FM040100 19014KT 1SM RA OVC004
     FM040600 24012KT 4SM -SHRA BR OVC004 WS020/25050KT
     FM041100 26009KT 3SM -RA BR OVC008=



000
FTUS41 KOKX 032100 AAC
TAFTEB
TAF AMD
KTEB 032158Z 0322/0418 17010KT 2SM -SN SCT010 OVC020
      TEMPO 0322/0323 1SM -SN BKN010
     FM032300 18010KT 2SM -PLSN OVC020
     FM040100 18007KT 1SM FZRA OVC004
     FM040400 23008KT 1SM RA OVC004 WS020/25050KT
     FM041100 26005KT 3SM -RA BR OVC007=



000
FTUS41 KOKX 032100 AAC
TAFLGA
TAF AMD
KLGA 032157Z 0322/0418 17011KT 2SM -SN SCT010 OVC020
      TEMPO 0322/0323 1SM -SN BKN010
     FM032330 18011KT 2SM -PLSN OVC020
     FM040100 19011KT 1SM RA OVC004
     FM040600 24009KT 1SM -SHRA BR OVC004 WS020/25050KT
     FM041100 27008KT 3SM -RA BR OVC008=



000
FTUS41 KOKX 032100 AAC
TAFJFK
TAF AMD
KJFK 032157Z 0322/0424 16011KT 2SM -SN SCT010 OVC020
      TEMPO 0322/0323 1SM -SN BKN010
     FM032330 18013KT 2SM -PLSN OVC020
     FM040100 19014KT 1SM RA OVC004
     FM040600 24012KT 4SM -SHRA BR OVC004 WS020/25050KT
     FM041100 26009KT 3SM -RA BR OVC008=



000
FTUS41 KOKX 032100 AAC
TAFEWR
TAF AMD
KEWR 032153Z 0322/0424 16009KT 2SM -SN SCT010 OVC020
      TEMPO 0322/0323 1SM -SN BKN010
     FM032300 17009KT 2SM -PLSN OVC020
     FM040100 19009KT 1SM RA OVC004
     FM040600 25007KT 1SM -SHRA OVC004 WS020/25050KT
     FM041100 27007KT 3SM -RA BR OVC007=



000
FTUS41 KOKX 032100 AAC
TAFEWR
TAF AMD
KEWR 032153Z 0322/0424 16009KT 2SM -SN SCT010 OVC020
      TEMPO 0322/0323 1SM -SN BKN010
     FM032300 17009KT 2SM -PLSN OVC020
     FM040100 19009KT 1SM RA OVC004
     FM040600 25007KT 1SM -SHRA OVC004 WS020/25050KT
     FM041100 27007KT 3SM -RA BR OVC007=



000
FTUS41 KOKX 032100 AAC
TAFBDR
TAF AMD
KBDR 032149Z 0322/0418 18009KT 2SM -SN SCT010 OVC020
      TEMPO 0322/0401 1SM -SN
     FM040100 18010KT 2SM -PLSN OVC020
     FM040200 19011KT 1SM FZRA OVC004
     FM040500 25007KT 1SM -SHRA BR OVC004 WS020/25050KT
     FM041100 27006KT 3SM -SHRA BR OVC007=



000
FTUS41 KOKX 032100 AAB
TAFTEB
TAF AMD
KTEB 032116Z 0321/0418 17010KT 2SM -SN SCT010 OVC020
      TEMPO 0322/0323 1SM -SN
     FM032330 18007KT 2SM -PLSN OVC020
     FM040100 18007KT 1SM FZRA OVC004
     FM040400 23008KT 1SM RA OVC004 WS020/25050KT
     FM041100 26005KT 3SM -RA BR OVC007=



000
FTUS41 KOKX 032100 AAB
TAFJFK
TAF AMD
KJFK 032115Z 0321/0424 17012KT 3SM -SN SCT010 OVC020
      TEMPO 0322/0324 1SM -SN
     FM040000 18013KT 2SM -PLSN OVC020
     FM040100 19014KT 1SM RA OVC004
     FM040600 24012KT 4SM -SHRA BR OVC004 WS020/25050KT
     FM041100 26009KT 3SM -RA BR OVC008=



000
FTUS41 KOKX 032100 AAB
TAFLGA
TAF AMD
KLGA 032115Z 0321/0418 17011KT 3SM -SN SCT010 OVC020
      TEMPO 0322/0324 1SM -SN
     FM040000 18011KT 2SM -PLSN OVC020
     FM040100 19011KT 1SM RA OVC004
     FM040600 24009KT 1SM -SHRA BR OVC004 WS020/25050KT
     FM041100 27008KT 3SM -RA BR OVC008=



000
FTUS41 KOKX 032100 AAB
TAFEWR
TAF AMD
KEWR 032115Z 0321/0424 16009KT 3SM -SN SCT010 OVC020
      TEMPO 0322/0323 1SM -SN
     FM032330 18009KT 2SM -PLSN OVC020
     FM040100 19009KT 1SM RA OVC004
     FM040600 25007KT 1SM -SHRA OVC004 WS020/25050KT
     FM041100 27007KT 3SM -RA BR OVC007=



000
FTUS41 KOKX 032000 AAA
TAFGON
TAF AMD
KGON 032007Z 0320/0418 19007KT P6SM SCT030 OVC060
     FM032300 18011KT 4SM -SN SCT020 OVC040
      TEMPO 0400/0402 2SM -SN
     FM040200 20012KT 2SM -PLSN OVC009
     FM040300 23010KT 1SM RA OVC004
     FM040700 25007KT 1SM -SHRA BR OVC004 WS020/25055KT
     FM041200 26007KT 3SM -SHRA BR OVC005=



000
FTUS41 KOKX 032000 AAA
TAFSWF
TAF AMD
KSWF 032001Z 0320/0424 17007KT 4SM -SN BKN020
     FM040100 18008KT 2SM -PLSN OVC009
     FM040200 22008KT 1SM FZRA OVC004
     FM040700 25008KT 1SM BR OVC004 WS020/25045KT
     FM041200 27007KT 6SM BR SCT020 BKN040 PROB30 0412/0418 -SHRA
      AMD NOT SKED=



000
FTUS41 KOKX 032000 AAB
TAFBDR
TAF AMD
KBDR 032000Z 0320/0418 17006KT P6SM SCT020 BKN100
     FM032200 17009KT 4SM -SN SCT020 OVC040
      TEMPO 0323/0401 2SM -SN
     FM040100 18010KT 2SM -PLSN OVC020
     FM040200 19011KT 1SM FZRA OVC004
     FM040500 25007KT 1SM -SHRA BR OVC004 WS020/25050KT
     FM041100 27006KT 3SM -SHRA BR OVC007=



000
FTUS41 KOKX 031900 AAA
TAFBDR
TAF AMD
KBDR 031956Z 0320/0418 17006KT P6SM SCT030 OVC060
     FM032200 17009KT 4SM -SN SCT020 OVC040
      TEMPO 0323/0401 2SM -SN
     FM040100 18010KT 2SM -PLSN OVC020
     FM040200 19011KT 1SM FZRA OVC004
     FM040500 25007KT 1SM -SHRA BR OVC004 WS020/25050KT
     FM041100 27006KT 3SM -SHRA BR OVC007=



000
FTUS41 KOKX 031900 AAA
TAFBDR
TAF AMD
KBDR 031956Z 0320/0418 17006KT P6SM SCT030 OVC060
     FM032200 17009KT 4SM -SN SCT020 OVC040
      TEMPO 0323/0401 2SM -SN
     FM040100 18010KT 2SM -PLSN OVC020
     FM040200 19011KT 1SM FZRA OVC004
     FM040500 25007KT 1SM -SHRA BR OVC004 WS020/25050KT
     FM041100 27006KT 3SM -SHRA BR OVC007=



000
FTUS41 KOKX 031900 CCA
TAFISP
TAF COR
KISP 031955Z 0320/0418 17007KT P6SM SCT030 OVC060
     FM032200 17008KT 4SM -SN BKN020 OVC040
      TEMPO 0323/0401 2SM -SN
     FM040100 18010KT 2SM -PLSN OVC020
     FM040200 19011KT 1SM RA OVC004
     FM040600 24009KT 1SM -SHRA BR OVC004 WS020/25055KT
     FM041100 26008KT 3SM -RA BR OVC007=



000
FTUS41 KOKX 031900 CCA
TAFISP
TAF COR
KISP 031955Z 0320/0418 17007KT P6SM SCT030 OVC060
     FM032200 17008KT 4SM -SN BKN020 OVC040
      TEMPO 0323/0401 2SM -SN
     FM040100 18010KT 2SM -PLSN OVC020
     FM040200 19011KT 1SM RA OVC004
     FM040600 24009KT 1SM -SHRA BR OVC004 WS020/25055KT
     FM041100 26008KT 3SM -RA BR OVC007=



000
FTUS41 KOKX 031900 AAA
TAFISP
TAF AMD
KISP 031950Z 0320/0418 17007KT P6SM SCT030 OVC060
     FM032200 17008KT 4SM -SN BKN020 OVC040
     FM040100 18010KT 2SM -PLSN OVC020
     FM040200 19011KT 1SM RA OVC004
     FM040600 24009KT 1SM -SHRA BR OVC004 WS020/25055KT
     FM041100 26008KT 3SM -RA BR OVC007=



000
FTUS41 KOKX 031900 AAA
TAFTEB
TAF AMD
KTEB 031939Z 0320/0418 17007KT 4SM -SN SCT020 OVC040
      TEMPO 0322/0323 2SM -SN
     FM032330 18007KT 2SM -PLSN OVC020
     FM040100 18007KT 1SM FZRA OVC004
     FM040400 23008KT 1SM RA OVC004 WS020/25050KT
     FM041100 26005KT 3SM -RA BR OVC007=



000
FTUS41 KOKX 031900 AAA
TAFEWR
TAF AMD
KEWR 031935Z 0320/0424 16009KT 4SM -SN SCT020 OVC040
      TEMPO 0322/0323 2SM -SN
     FM032330 18009KT 2SM -PLSN OVC020
     FM040100 19009KT 1SM RA OVC004
     FM040600 25007KT 1SM -SHRA OVC004 WS020/25050KT
     FM041100 27007KT 3SM -RA BR OVC007=



000
FTUS41 KOKX 031900 AAA
TAFJFK
TAF AMD
KJFK 031935Z 0320/0424 17010KT P6SM SCT040 OVC060
     FM032000 17012KT 4SM -SN SCT020 OVC040
      TEMPO 0322/0324 2SM -SN
     FM040000 18013KT 2SM -PLSN OVC020
     FM040100 19014KT 1SM RA OVC004
     FM040600 24012KT 4SM -SHRA BR OVC004 WS020/25050KT
     FM041100 26009KT 3SM -RA BR OVC008=



000
FTUS41 KOKX 031900 AAA
TAFLGA
TAF AMD
KLGA 031935Z 0320/0418 17010KT P6SM SCT040 OVC060
     FM032000 17011KT 4SM -SN SCT020 OVC040
      TEMPO 0322/0324 2SM -SN
     FM040000 18011KT 2SM -PLSN OVC020
     FM040100 19011KT 1SM RA OVC004
     FM040600 24009KT 1SM -SHRA BR OVC004 WS020/25050KT
     FM041100 27008KT 3SM -RA BR OVC008=



000
FTUS41 KOKX 031700 RRA
TAFGON
TAF
KGON 031750Z 0318/0418 19007KT P6SM SCT020 BKN120
     FM040000 18011KT 4SM -SN BKN025 OVC040
     FM040300 20012KT 2SM -PLSN OVC009
     FM040500 23010KT 1SM RA OVC004
     FM040700 25007KT 1SM -SHRA BR OVC004 WS020/25055KT
     FM041200 26007KT 3SM -SHRA BR OVC005=



000
FTUS41 KOKX 031700 RRA
TAFGON
TAF
KGON 031750Z 0318/0418 19007KT P6SM SCT020 BKN120
     FM040000 18011KT 4SM -SN BKN025 OVC040
     FM040300 20012KT 2SM -PLSN OVC009
     FM040500 23010KT 1SM RA OVC004
     FM040700 25007KT 1SM -SHRA BR OVC004 WS020/25055KT
     FM041200 26007KT 3SM -SHRA BR OVC005=



000
FTUS41 KOKX 031700 RRA
TAFSWF
TAF
KSWF 031743Z 0318/0424 16007KT P6SM SCT020 BKN060
     FM032100 17007KT 4SM -SN BKN020 OVC035
     FM040100 18008KT 2SM -PLSN OVC009
     FM040300 22008KT 1SM FZRA OVC004
     FM040700 25008KT 1SM BR OVC004 WS020/25045KT
     FM041200 27007KT 6SM BR SCT020 BKN040 PROB30 0412/0418 -SHRA
      AMD NOT SKED=



000
FTUS41 KOKX 031700 RRA
TAFSWF
TAF
KSWF 031743Z 0318/0424 16007KT P6SM SCT020 BKN060
     FM032100 17007KT 4SM -SN BKN020 OVC035
     FM040100 18008KT 2SM -PLSN OVC009
     FM040300 22008KT 1SM FZRA OVC004
     FM040700 25008KT 1SM BR OVC004 WS020/25045KT
     FM041200 27007KT 6SM BR SCT020 BKN040 PROB30 0412/0418 -SHRA
      AMD NOT SKED=



000
FTUS41 KOKX 031700
TAFBDR
TAF
KBDR 031738Z 0318/0418 17006KT P6SM SCT020 BKN100
     FM032200 17009KT 4SM -SN BKN020 OVC040
     FM040200 18010KT 2SM -SNPL OVC009
     FM040300 19011KT 1SM FZRA OVC004
     FM040500 25007KT 1SM -SHRA BR OVC004 WS020/25050KT
     FM041100 27006KT 3SM -SHRA BR OVC007=



000
FTUS41 KOKX 031700
TAFTEB
TAF
KTEB 031738Z 0318/0418 17005KT P6SM SCT020 BKN080
     FM032100 17006KT 4SM -SN BKN020 OVC040
     FM040000 18007KT 2SM -PLSN OVC009
     FM040200 18007KT 1SM FZRA OVC004
     FM040400 23008KT 1SM RA OVC004 WS020/25050KT
     FM041100 26005KT 3SM -RA BR OVC007=



000
FTUS41 KOKX 031700
TAFBDR
TAF
KBDR 031738Z 0318/0418 17006KT P6SM SCT020 BKN100
     FM032200 17009KT 4SM -SN BKN020 OVC040
     FM040200 18010KT 2SM -SNPL OVC009
     FM040300 19011KT 1SM FZRA OVC004
     FM040500 25007KT 1SM -SHRA BR OVC004 WS020/25050KT
     FM041100 27006KT 3SM -SHRA BR OVC007=



000
FTUS41 KOKX 031700
TAFISP
TAF
KISP 031738Z 0318/0418 17007KT P6SM SCT020 BKN100
     FM032200 17008KT 4SM -SN BKN020 OVC040
     FM040100 18010KT 2SM -PLSN OVC009
     FM040300 19011KT 1SM RA OVC004
     FM040600 24009KT 1SM -SHRA BR OVC004 WS020/25055KT
     FM041100 26008KT 3SM -RA BR OVC007=



000
FTUS41 KOKX 031700
TAFLGA
TAF
KLGA 031738Z 0318/0418 17010KT P6SM SCT020 BKN080
     FM032100 17011KT 4SM -SN BKN020 OVC040
      TEMPO 0322/0324 1SM -SN
     FM040000 18011KT 2SM -PLSN OVC009
     FM040200 19011KT 1SM RA OVC004
     FM040600 24009KT 1SM -SHRA BR OVC004 WS020/25050KT
     FM041100 27008KT 3SM -RA BR OVC008=



000
FTUS41 KOKX 031700
TAFTEB
TAF
KTEB 031738Z 0318/0418 17005KT P6SM SCT020 BKN080
     FM032100 17006KT 4SM -SN BKN020 OVC040
     FM040000 18007KT 2SM -PLSN OVC009
     FM040200 18007KT 1SM FZRA OVC004
     FM040400 23008KT 1SM RA OVC004 WS020/25050KT
     FM041100 26005KT 3SM -RA BR OVC007=



000
FTUS41 KOKX 031700
TAFISP
TAF
KISP 031738Z 0318/0418 17007KT P6SM SCT020 BKN100
     FM032200 17008KT 4SM -SN BKN020 OVC040
     FM040100 18010KT 2SM -PLSN OVC009
     FM040300 19011KT 1SM RA OVC004
     FM040600 24009KT 1SM -SHRA BR OVC004 WS020/25055KT
     FM041100 26008KT 3SM -RA BR OVC007=



000
FTUS41 KOKX 031700
TAFLGA
TAF
KLGA 031738Z 0318/0418 17010KT P6SM SCT020 BKN080
     FM032100 17011KT 4SM -SN BKN020 OVC040
      TEMPO 0322/0324 1SM -SN
     FM040000 18011KT 2SM -PLSN OVC009
     FM040200 19011KT 1SM RA OVC004
     FM040600 24009KT 1SM -SHRA BR OVC004 WS020/25050KT
     FM041100 27008KT 3SM -RA BR OVC008=



000
FTUS41 KOKX 031700
TAFJFK
TAF
KJFK 031738Z 0318/0424 17010KT P6SM SCT020 BKN080
     FM032100 17012KT 4SM -SN BKN020 OVC040
      TEMPO 0322/0324 1SM -SN
     FM040000 18013KT 2SM -PLSN OVC009
     FM040200 19014KT 1SM RA OVC004
     FM040600 24012KT 4SM -SHRA BR OVC004 WS020/25050KT
     FM041100 26009KT 3SM -RA BR OVC008=



000
FTUS41 KOKX 031700
TAFEWR
TAF
KEWR 031738Z 0318/0424 17008KT P6SM SCT020 BKN080
     FM032100 17009KT 4SM -SN BKN020 OVC040
      TEMPO 0322/0324 1SM -SN
     FM040000 18009KT 2SM -PLSN OVC009
     FM040200 19009KT 1SM RA OVC004
     FM040600 25007KT 1SM -SHRA OVC004 WS020/25050KT
     FM041100 27007KT 3SM -RA BR OVC007=



000
FTUS41 KOKX 031700
TAFJFK
TAF
KJFK 031738Z 0318/0424 17010KT P6SM SCT020 BKN080
     FM032100 17012KT 4SM -SN BKN020 OVC040
      TEMPO 0322/0324 1SM -SN
     FM040000 18013KT 2SM -PLSN OVC009
     FM040200 19014KT 1SM RA OVC004
     FM040600 24012KT 4SM -SHRA BR OVC004 WS020/25050KT
     FM041100 26009KT 3SM -RA BR OVC008=



000
FTUS41 KOKX 031700
TAFEWR
TAF
KEWR 031738Z 0318/0424 17008KT P6SM SCT020 BKN080
     FM032100 17009KT 4SM -SN BKN020 OVC040
      TEMPO 0322/0324 1SM -SN
     FM040000 18009KT 2SM -PLSN OVC009
     FM040200 19009KT 1SM RA OVC004
     FM040600 25007KT 1SM -SHRA OVC004 WS020/25050KT
     FM041100 27007KT 3SM -RA BR OVC007=



    US Dept of Commerce
    National Oceanic and Atmospheric Administration
    National Weather Service
    1325 East West Highway
    Silver Spring, MD 20910
    Page Author: NWS Internet Services Team
Disclaimer
Information Quality
Credits
Glossary
Privacy Policy
Freedom of Information Act (FOIA)
About Us
Career Opportunities